<?xml version="1.0" encoding="UTF-8" standalone="no" ?>
<gpx xmlns="http://www.topografix.com/GPX/1/1" xmlns:xsi="http://www.w3.org/2001/XMLSchema-instance" xsi:schemaLocation="http://www.topografix.com/GPX/1/1 http://www.topografix.com/GPX/1/1/gpx.xsd" version="1.1" creator="VisuGPX - https://www.visugpx.com">
  <metadata>
    <name>Les Mées - Les Pénitents</name>
    <desc><![CDATA[Découverte des pénitents des Mées. Merveille géologique.
Attention le parcours passe souvent sur des sentiers un peu délicats. Attention aux enfants !!
Merci à Alain pour ce tracé original.]]></desc>
  </metadata>
  <trk>
    <name><![CDATA[2023-02-25 17:11:50]]></name>
    <extensions>
      <line xmlns="http://www.topografix.com/GPX/gpx_style/0/2">
        <color>0000FF</color>
        <width>4</width>
      </line>
    </extensions>
    <trkseg>
      <trkpt lat="44.03268" lon="5.98539">
        <ele>410.8</ele>
        <time>2023-02-25T08:50:53Z</time>
      </trkpt>
      <trkpt lat="44.03258" lon="5.9853">
        <ele>411.3</ele>
        <time>2023-02-25T08:54:13Z</time>
      </trkpt>
      <trkpt lat="44.03255" lon="5.98527">
        <ele>411.4</ele>
        <time>2023-02-25T08:55:57Z</time>
      </trkpt>
      <trkpt lat="44.0325" lon="5.98516">
        <ele>411.1</ele>
        <time>2023-02-25T08:56:07Z</time>
      </trkpt>
      <trkpt lat="44.03245" lon="5.98505">
        <ele>412.1</ele>
        <time>2023-02-25T08:56:16Z</time>
      </trkpt>
      <trkpt lat="44.03238" lon="5.98491">
        <ele>413.1</ele>
        <time>2023-02-25T08:56:25Z</time>
      </trkpt>
      <trkpt lat="44.03233" lon="5.98479">
        <ele>413.4</ele>
        <time>2023-02-25T08:56:34Z</time>
      </trkpt>
      <trkpt lat="44.03228" lon="5.98467">
        <ele>413.3</ele>
        <time>2023-02-25T08:56:42Z</time>
      </trkpt>
      <trkpt lat="44.03226" lon="5.98458">
        <ele>412.7</ele>
        <time>2023-02-25T08:56:59Z</time>
      </trkpt>
      <trkpt lat="44.03222" lon="5.98444">
        <ele>412</ele>
        <time>2023-02-25T08:57:06Z</time>
      </trkpt>
      <trkpt lat="44.03221" lon="5.9843">
        <ele>411</ele>
        <time>2023-02-25T08:57:14Z</time>
      </trkpt>
      <trkpt lat="44.03216" lon="5.98417">
        <ele>411.2</ele>
        <time>2023-02-25T08:57:22Z</time>
      </trkpt>
      <trkpt lat="44.0321" lon="5.98402">
        <ele>411.8</ele>
        <time>2023-02-25T08:57:31Z</time>
      </trkpt>
      <trkpt lat="44.03204" lon="5.9839">
        <ele>412.4</ele>
        <time>2023-02-25T08:57:40Z</time>
      </trkpt>
      <trkpt lat="44.03196" lon="5.98379">
        <ele>413.5</ele>
        <time>2023-02-25T08:57:49Z</time>
      </trkpt>
      <trkpt lat="44.0319" lon="5.98368">
        <ele>414.7</ele>
        <time>2023-02-25T08:57:58Z</time>
      </trkpt>
      <trkpt lat="44.03184" lon="5.98355">
        <ele>414.9</ele>
        <time>2023-02-25T08:58:07Z</time>
      </trkpt>
      <trkpt lat="44.03177" lon="5.98345">
        <ele>415.6</ele>
        <time>2023-02-25T08:58:15Z</time>
      </trkpt>
      <trkpt lat="44.03171" lon="5.98334">
        <ele>415.7</ele>
        <time>2023-02-25T08:58:24Z</time>
      </trkpt>
      <trkpt lat="44.03162" lon="5.98326">
        <ele>418</ele>
        <time>2023-02-25T08:58:36Z</time>
      </trkpt>
      <trkpt lat="44.03154" lon="5.98316">
        <ele>419.6</ele>
        <time>2023-02-25T08:58:45Z</time>
      </trkpt>
      <trkpt lat="44.03149" lon="5.98303">
        <ele>418.5</ele>
        <time>2023-02-25T08:58:55Z</time>
      </trkpt>
      <trkpt lat="44.03145" lon="5.98296">
        <ele>418.3</ele>
        <time>2023-02-25T08:59:14Z</time>
      </trkpt>
      <trkpt lat="44.03136" lon="5.98292">
        <ele>420</ele>
        <time>2023-02-25T08:59:26Z</time>
      </trkpt>
      <trkpt lat="44.03128" lon="5.98285">
        <ele>420.7</ele>
        <time>2023-02-25T08:59:44Z</time>
      </trkpt>
      <trkpt lat="44.03123" lon="5.98273">
        <ele>419.9</ele>
        <time>2023-02-25T08:59:53Z</time>
      </trkpt>
      <trkpt lat="44.03121" lon="5.98257">
        <ele>418</ele>
        <time>2023-02-25T09:00:03Z</time>
      </trkpt>
      <trkpt lat="44.03115" lon="5.98238">
        <ele>417.5</ele>
        <time>2023-02-25T09:00:14Z</time>
      </trkpt>
      <trkpt lat="44.03109" lon="5.98223">
        <ele>417.8</ele>
        <time>2023-02-25T09:00:24Z</time>
      </trkpt>
      <trkpt lat="44.03103" lon="5.98211">
        <ele>417.6</ele>
        <time>2023-02-25T09:00:34Z</time>
      </trkpt>
      <trkpt lat="44.03101" lon="5.98207">
        <ele>417.5</ele>
        <time>2023-02-25T09:00:36.885Z</time>
      </trkpt>
      <trkpt lat="44.03093" lon="5.98199">
        <ele>418.2</ele>
        <time>2023-02-25T09:00:45Z</time>
      </trkpt>
      <trkpt lat="44.03086" lon="5.98179">
        <ele>417.6</ele>
        <time>2023-02-25T09:00:57Z</time>
      </trkpt>
      <trkpt lat="44.0308" lon="5.98157">
        <ele>417.8</ele>
        <time>2023-02-25T09:01:08Z</time>
      </trkpt>
      <trkpt lat="44.03071" lon="5.98135">
        <ele>418.1</ele>
        <time>2023-02-25T09:01:26Z</time>
      </trkpt>
      <trkpt lat="44.03067" lon="5.98123">
        <ele>416.3</ele>
        <time>2023-02-25T09:01:29.356Z</time>
      </trkpt>
      <trkpt lat="44.03063" lon="5.98108">
        <ele>414.2</ele>
        <time>2023-02-25T09:01:33.415Z</time>
      </trkpt>
      <trkpt lat="44.03057" lon="5.98108">
        <ele>416.5</ele>
        <time>2023-02-25T09:01:35.532Z</time>
      </trkpt>
      <trkpt lat="44.03055" lon="5.98129">
        <ele>423.5</ele>
        <time>2023-02-25T09:01:40.908Z</time>
      </trkpt>
      <trkpt lat="44.0305" lon="5.98139">
        <ele>444.2</ele>
        <time>2023-02-25T09:01:44Z</time>
      </trkpt>
      <trkpt lat="44.03046" lon="5.98129">
        <ele>454.1</ele>
        <time>2023-02-25T09:01:49.305Z</time>
      </trkpt>
      <trkpt lat="44.03044" lon="5.98112">
        <ele>451.3</ele>
        <time>2023-02-25T09:01:57.291Z</time>
      </trkpt>
      <trkpt lat="44.03044" lon="5.98104">
        <ele>448.2</ele>
        <time>2023-02-25T09:02:01Z</time>
      </trkpt>
      <trkpt lat="44.03047" lon="5.98105">
        <ele>439.1</ele>
        <time>2023-02-25T09:02:12Z</time>
      </trkpt>
      <trkpt lat="44.03048" lon="5.98098">
        <ele>436.2</ele>
        <time>2023-02-25T09:02:25Z</time>
      </trkpt>
      <trkpt lat="44.03047" lon="5.9809">
        <ele>435.8</ele>
        <time>2023-02-25T09:02:38Z</time>
      </trkpt>
      <trkpt lat="44.03049" lon="5.98087">
        <ele>431.2</ele>
        <time>2023-02-25T09:02:51Z</time>
      </trkpt>
      <trkpt lat="44.03044" lon="5.98073">
        <ele>437.8</ele>
        <time>2023-02-25T09:03:11Z</time>
      </trkpt>
      <trkpt lat="44.03037" lon="5.98063">
        <ele>444.9</ele>
        <time>2023-02-25T09:03:27Z</time>
      </trkpt>
      <trkpt lat="44.03035" lon="5.98055">
        <ele>444.1</ele>
        <time>2023-02-25T09:03:37Z</time>
      </trkpt>
      <trkpt lat="44.03033" lon="5.98048">
        <ele>439</ele>
        <time>2023-02-25T09:03:49Z</time>
      </trkpt>
      <trkpt lat="44.03032" lon="5.9804">
        <ele>430.3</ele>
        <time>2023-02-25T09:04:05Z</time>
      </trkpt>
      <trkpt lat="44.03031" lon="5.98034">
        <ele>424.7</ele>
        <time>2023-02-25T09:04:18Z</time>
      </trkpt>
      <trkpt lat="44.03031" lon="5.98029">
        <ele>419.1</ele>
        <time>2023-02-25T09:04:55Z</time>
      </trkpt>
      <trkpt lat="44.03025" lon="5.9802">
        <ele>423.6</ele>
        <time>2023-02-25T09:05:43.731Z</time>
      </trkpt>
      <trkpt lat="44.0302" lon="5.98004">
        <ele>434.1</ele>
        <time>2023-02-25T09:06:53Z</time>
      </trkpt>
      <trkpt lat="44.0302" lon="5.97996">
        <ele>435.5</ele>
        <time>2023-02-25T09:07:53Z</time>
      </trkpt>
      <trkpt lat="44.03016" lon="5.97991">
        <ele>443.7</ele>
        <time>2023-02-25T09:08:13Z</time>
      </trkpt>
      <trkpt lat="44.03014" lon="5.97984">
        <ele>448.3</ele>
        <time>2023-02-25T09:08:30Z</time>
      </trkpt>
      <trkpt lat="44.03018" lon="5.97976">
        <ele>438.3</ele>
        <time>2023-02-25T09:10:34Z</time>
      </trkpt>
      <trkpt lat="44.03015" lon="5.97967">
        <ele>441.8</ele>
        <time>2023-02-25T09:13:30Z</time>
      </trkpt>
      <trkpt lat="44.03023" lon="5.97953">
        <ele>422.7</ele>
        <time>2023-02-25T09:13:47Z</time>
      </trkpt>
      <trkpt lat="44.03017" lon="5.9794">
        <ele>423.9</ele>
        <time>2023-02-25T09:14:01Z</time>
      </trkpt>
      <trkpt lat="44.03013" lon="5.97924">
        <ele>421.6</ele>
        <time>2023-02-25T09:14:18Z</time>
      </trkpt>
      <trkpt lat="44.03009" lon="5.97911">
        <ele>420.4</ele>
        <time>2023-02-25T09:14:36Z</time>
      </trkpt>
      <trkpt lat="44.03004" lon="5.97894">
        <ele>420.6</ele>
        <time>2023-02-25T09:14:51Z</time>
      </trkpt>
      <trkpt lat="44.02996" lon="5.97883">
        <ele>427.9</ele>
        <time>2023-02-25T09:15:06Z</time>
      </trkpt>
      <trkpt lat="44.02988" lon="5.97878">
        <ele>439.3</ele>
        <time>2023-02-25T09:15:22Z</time>
      </trkpt>
      <trkpt lat="44.0298" lon="5.9787">
        <ele>442.6</ele>
        <time>2023-02-25T09:15:33Z</time>
      </trkpt>
      <trkpt lat="44.02976" lon="5.97859">
        <ele>433.2</ele>
        <time>2023-02-25T09:15:45Z</time>
      </trkpt>
      <trkpt lat="44.02975" lon="5.97845">
        <ele>425.6</ele>
        <time>2023-02-25T09:15:48.392Z</time>
      </trkpt>
      <trkpt lat="44.02971" lon="5.97827">
        <ele>419.3</ele>
        <time>2023-02-25T09:15:52.935Z</time>
      </trkpt>
      <trkpt lat="44.02968" lon="5.97815">
        <ele>419.5</ele>
        <time>2023-02-25T09:15:56Z</time>
      </trkpt>
      <trkpt lat="44.02964" lon="5.97808">
        <ele>419.3</ele>
        <time>2023-02-25T09:16:07Z</time>
      </trkpt>
      <trkpt lat="44.02954" lon="5.97803">
        <ele>420.1</ele>
        <time>2023-02-25T09:16:20Z</time>
      </trkpt>
      <trkpt lat="44.02945" lon="5.97799">
        <ele>421.3</ele>
        <time>2023-02-25T09:16:33Z</time>
      </trkpt>
      <trkpt lat="44.02932" lon="5.97795">
        <ele>423.3</ele>
        <time>2023-02-25T09:16:47Z</time>
      </trkpt>
      <trkpt lat="44.02923" lon="5.97794">
        <ele>425.2</ele>
        <time>2023-02-25T09:17:02Z</time>
      </trkpt>
      <trkpt lat="44.02911" lon="5.97788">
        <ele>426.6</ele>
        <time>2023-02-25T09:17:17Z</time>
      </trkpt>
      <trkpt lat="44.02913" lon="5.9778">
        <ele>424.2</ele>
        <time>2023-02-25T09:17:43Z</time>
      </trkpt>
      <trkpt lat="44.02912" lon="5.97781">
        <ele>424.5</ele>
        <time>2023-02-25T09:18:09Z</time>
      </trkpt>
      <trkpt lat="44.02905" lon="5.9778">
        <ele>425.4</ele>
        <time>2023-02-25T09:18:27Z</time>
      </trkpt>
      <trkpt lat="44.02893" lon="5.9777">
        <ele>425.6</ele>
        <time>2023-02-25T09:18:43Z</time>
      </trkpt>
      <trkpt lat="44.02886" lon="5.97769">
        <ele>426.1</ele>
        <time>2023-02-25T09:19:02Z</time>
      </trkpt>
      <trkpt lat="44.02886" lon="5.97767">
        <ele>425.9</ele>
        <time>2023-02-25T09:19:36Z</time>
      </trkpt>
      <trkpt lat="44.02878" lon="5.97776">
        <ele>426.9</ele>
        <time>2023-02-25T09:19:57Z</time>
      </trkpt>
      <trkpt lat="44.0287" lon="5.97784">
        <ele>428.2</ele>
        <time>2023-02-25T09:20:13Z</time>
      </trkpt>
      <trkpt lat="44.02866" lon="5.97801">
        <ele>430.2</ele>
        <time>2023-02-25T09:20:27Z</time>
      </trkpt>
      <trkpt lat="44.02862" lon="5.97812">
        <ele>430.4</ele>
        <time>2023-02-25T09:20:40Z</time>
      </trkpt>
      <trkpt lat="44.02865" lon="5.9781">
        <ele>431.2</ele>
        <time>2023-02-25T09:21:14Z</time>
      </trkpt>
      <trkpt lat="44.02865" lon="5.97823">
        <ele>433.2</ele>
        <time>2023-02-25T09:21:29Z</time>
      </trkpt>
      <trkpt lat="44.02863" lon="5.97835">
        <ele>434.1</ele>
        <time>2023-02-25T09:21:44Z</time>
      </trkpt>
      <trkpt lat="44.02864" lon="5.97849">
        <ele>435.6</ele>
        <time>2023-02-25T09:21:57Z</time>
      </trkpt>
      <trkpt lat="44.02864" lon="5.9786">
        <ele>436.5</ele>
        <time>2023-02-25T09:22:21Z</time>
      </trkpt>
      <trkpt lat="44.02864" lon="5.97868">
        <ele>437.1</ele>
        <time>2023-02-25T09:22:48Z</time>
      </trkpt>
      <trkpt lat="44.02864" lon="5.97874">
        <ele>437.6</ele>
        <time>2023-02-25T09:23:19Z</time>
      </trkpt>
      <trkpt lat="44.02864" lon="5.97888">
        <ele>439</ele>
        <time>2023-02-25T09:23:35Z</time>
      </trkpt>
      <trkpt lat="44.02863" lon="5.97904">
        <ele>437.7</ele>
        <time>2023-02-25T09:23:48Z</time>
      </trkpt>
      <trkpt lat="44.02871" lon="5.97911">
        <ele>441.9</ele>
        <time>2023-02-25T09:24:01Z</time>
      </trkpt>
      <trkpt lat="44.02871" lon="5.97912">
        <ele>442</ele>
        <time>2023-02-25T09:24:27Z</time>
      </trkpt>
      <trkpt lat="44.02868" lon="5.97914">
        <ele>439.8</ele>
        <time>2023-02-25T09:25:13Z</time>
      </trkpt>
      <trkpt lat="44.02873" lon="5.97915">
        <ele>442.8</ele>
        <time>2023-02-25T09:25:41Z</time>
      </trkpt>
      <trkpt lat="44.02872" lon="5.97913">
        <ele>442.5</ele>
        <time>2023-02-25T09:26:19Z</time>
      </trkpt>
      <trkpt lat="44.02871" lon="5.97907">
        <ele>442.1</ele>
        <time>2023-02-25T09:26:54Z</time>
      </trkpt>
      <trkpt lat="44.02875" lon="5.97895">
        <ele>445.3</ele>
        <time>2023-02-25T09:27:10Z</time>
      </trkpt>
      <trkpt lat="44.02876" lon="5.97884">
        <ele>446</ele>
        <time>2023-02-25T09:27:27Z</time>
      </trkpt>
      <trkpt lat="44.02882" lon="5.97875">
        <ele>449</ele>
        <time>2023-02-25T09:27:44Z</time>
      </trkpt>
      <trkpt lat="44.02883" lon="5.97866">
        <ele>447.9</ele>
        <time>2023-02-25T09:28:12Z</time>
      </trkpt>
      <trkpt lat="44.02885" lon="5.97862">
        <ele>449</ele>
        <time>2023-02-25T09:29:14Z</time>
      </trkpt>
      <trkpt lat="44.02889" lon="5.97861">
        <ele>450.7</ele>
        <time>2023-02-25T09:30:06Z</time>
      </trkpt>
      <trkpt lat="44.0289" lon="5.97873">
        <ele>453.6</ele>
        <time>2023-02-25T09:30:32Z</time>
      </trkpt>
      <trkpt lat="44.02893" lon="5.97864">
        <ele>454.9</ele>
        <time>2023-02-25T09:30:56Z</time>
      </trkpt>
      <trkpt lat="44.02895" lon="5.97871">
        <ele>457.3</ele>
        <time>2023-02-25T09:31:43Z</time>
      </trkpt>
      <trkpt lat="44.02892" lon="5.97877">
        <ele>455.4</ele>
        <time>2023-02-25T09:32:37Z</time>
      </trkpt>
      <trkpt lat="44.02894" lon="5.97866">
        <ele>456.1</ele>
        <time>2023-02-25T09:32:59Z</time>
      </trkpt>
      <trkpt lat="44.02897" lon="5.97855">
        <ele>456.2</ele>
        <time>2023-02-25T09:33:13Z</time>
      </trkpt>
      <trkpt lat="44.02894" lon="5.9785">
        <ele>452.4</ele>
        <time>2023-02-25T09:34:10Z</time>
      </trkpt>
      <trkpt lat="44.02899" lon="5.97854">
        <ele>456.9</ele>
        <time>2023-02-25T09:36:13Z</time>
      </trkpt>
      <trkpt lat="44.02907" lon="5.97847">
        <ele>460.2</ele>
        <time>2023-02-25T09:36:32Z</time>
      </trkpt>
      <trkpt lat="44.02912" lon="5.97836">
        <ele>458.5</ele>
        <time>2023-02-25T09:37:14Z</time>
      </trkpt>
      <trkpt lat="44.02913" lon="5.97831">
        <ele>456.4</ele>
        <time>2023-02-25T09:38:21Z</time>
      </trkpt>
      <trkpt lat="44.02913" lon="5.97838">
        <ele>460.4</ele>
        <time>2023-02-25T09:39:16Z</time>
      </trkpt>
      <trkpt lat="44.02909" lon="5.9785">
        <ele>462.4</ele>
        <time>2023-02-25T09:39:59Z</time>
      </trkpt>
      <trkpt lat="44.02904" lon="5.97855">
        <ele>460.6</ele>
        <time>2023-02-25T09:40:40Z</time>
      </trkpt>
      <trkpt lat="44.02906" lon="5.97865">
        <ele>465.3</ele>
        <time>2023-02-25T09:41:03Z</time>
      </trkpt>
      <trkpt lat="44.02913" lon="5.97857">
        <ele>468.1</ele>
        <time>2023-02-25T09:41:26Z</time>
      </trkpt>
      <trkpt lat="44.02921" lon="5.97855">
        <ele>467.7</ele>
        <time>2023-02-25T09:41:57Z</time>
      </trkpt>
      <trkpt lat="44.02919" lon="5.97866">
        <ele>472.3</ele>
        <time>2023-02-25T09:42:20Z</time>
      </trkpt>
      <trkpt lat="44.0292" lon="5.9788">
        <ele>474.2</ele>
        <time>2023-02-25T09:42:39Z</time>
      </trkpt>
      <trkpt lat="44.02922" lon="5.97886">
        <ele>474.9</ele>
        <time>2023-02-25T09:43:16Z</time>
      </trkpt>
      <trkpt lat="44.02922" lon="5.9789">
        <ele>475.5</ele>
        <time>2023-02-25T09:45:06Z</time>
      </trkpt>
      <trkpt lat="44.02927" lon="5.97902">
        <ele>477.2</ele>
        <time>2023-02-25T09:45:39Z</time>
      </trkpt>
      <trkpt lat="44.02932" lon="5.97908">
        <ele>480.2</ele>
        <time>2023-02-25T09:46:52Z</time>
      </trkpt>
      <trkpt lat="44.02937" lon="5.97914">
        <ele>485.2</ele>
        <time>2023-02-25T09:47:27Z</time>
      </trkpt>
      <trkpt lat="44.02943" lon="5.97923">
        <ele>489.9</ele>
        <time>2023-02-25T09:48:25Z</time>
      </trkpt>
      <trkpt lat="44.02947" lon="5.97933">
        <ele>490.1</ele>
        <time>2023-02-25T09:49:12Z</time>
      </trkpt>
      <trkpt lat="44.02951" lon="5.97944">
        <ele>491.1</ele>
        <time>2023-02-25T09:49:27Z</time>
      </trkpt>
      <trkpt lat="44.02954" lon="5.97947">
        <ele>492</ele>
        <time>2023-02-25T09:50:18Z</time>
      </trkpt>
      <trkpt lat="44.0296" lon="5.97959">
        <ele>494.9</ele>
        <time>2023-02-25T09:50:39Z</time>
      </trkpt>
      <trkpt lat="44.02964" lon="5.97972">
        <ele>498.4</ele>
        <time>2023-02-25T09:50:51Z</time>
      </trkpt>
      <trkpt lat="44.02967" lon="5.97986">
        <ele>498.4</ele>
        <time>2023-02-25T09:51:05Z</time>
      </trkpt>
      <trkpt lat="44.02968" lon="5.98">
        <ele>496</ele>
        <time>2023-02-25T09:51:20Z</time>
      </trkpt>
      <trkpt lat="44.0297" lon="5.98003">
        <ele>497.1</ele>
        <time>2023-02-25T09:52:09Z</time>
      </trkpt>
      <trkpt lat="44.02969" lon="5.98015">
        <ele>496.8</ele>
        <time>2023-02-25T09:52:30Z</time>
      </trkpt>
      <trkpt lat="44.0297" lon="5.98026">
        <ele>497.8</ele>
        <time>2023-02-25T09:52:48Z</time>
      </trkpt>
      <trkpt lat="44.02971" lon="5.98039">
        <ele>501.7</ele>
        <time>2023-02-25T09:53:13Z</time>
      </trkpt>
      <trkpt lat="44.02972" lon="5.98045">
        <ele>503.9</ele>
        <time>2023-02-25T09:53:59Z</time>
      </trkpt>
      <trkpt lat="44.02977" lon="5.98054">
        <ele>503.9</ele>
        <time>2023-02-25T09:54:40Z</time>
      </trkpt>
      <trkpt lat="44.0298" lon="5.98069">
        <ele>506.9</ele>
        <time>2023-02-25T09:55:07Z</time>
      </trkpt>
      <trkpt lat="44.02984" lon="5.98071">
        <ele>507.3</ele>
        <time>2023-02-25T09:57:21Z</time>
      </trkpt>
      <trkpt lat="44.02987" lon="5.98083">
        <ele>513.1</ele>
        <time>2023-02-25T09:57:47Z</time>
      </trkpt>
      <trkpt lat="44.02986" lon="5.98096">
        <ele>515.4</ele>
        <time>2023-02-25T09:58:05Z</time>
      </trkpt>
      <trkpt lat="44.02988" lon="5.98108">
        <ele>517.9</ele>
        <time>2023-02-25T09:58:23Z</time>
      </trkpt>
      <trkpt lat="44.02989" lon="5.98114">
        <ele>519.1</ele>
        <time>2023-02-25T09:59:02Z</time>
      </trkpt>
      <trkpt lat="44.02991" lon="5.98125">
        <ele>522.1</ele>
        <time>2023-02-25T09:59:48Z</time>
      </trkpt>
      <trkpt lat="44.02996" lon="5.98129">
        <ele>526.2</ele>
        <time>2023-02-25T10:01:19Z</time>
      </trkpt>
      <trkpt lat="44.03001" lon="5.98141">
        <ele>530.8</ele>
        <time>2023-02-25T10:01:49Z</time>
      </trkpt>
      <trkpt lat="44.03004" lon="5.98138">
        <ele>529.7</ele>
        <time>2023-02-25T10:02:24Z</time>
      </trkpt>
      <trkpt lat="44.03001" lon="5.98131">
        <ele>528.4</ele>
        <time>2023-02-25T10:03:03Z</time>
      </trkpt>
      <trkpt lat="44.02998" lon="5.98127">
        <ele>526.2</ele>
        <time>2023-02-25T10:03:45Z</time>
      </trkpt>
      <trkpt lat="44.02992" lon="5.9812">
        <ele>521.6</ele>
        <time>2023-02-25T10:04:06Z</time>
      </trkpt>
      <trkpt lat="44.02988" lon="5.98125">
        <ele>521.1</ele>
        <time>2023-02-25T10:04:35Z</time>
      </trkpt>
      <trkpt lat="44.02993" lon="5.98135">
        <ele>526</ele>
        <time>2023-02-25T10:05:08Z</time>
      </trkpt>
      <trkpt lat="44.02994" lon="5.98146">
        <ele>525.4</ele>
        <time>2023-02-25T10:05:45Z</time>
      </trkpt>
      <trkpt lat="44.02994" lon="5.9815">
        <ele>524.7</ele>
        <time>2023-02-25T10:06:34Z</time>
      </trkpt>
      <trkpt lat="44.02993" lon="5.98153">
        <ele>523.3</ele>
        <time>2023-02-25T10:07:07Z</time>
      </trkpt>
      <trkpt lat="44.02997" lon="5.98165">
        <ele>522.4</ele>
        <time>2023-02-25T10:07:23Z</time>
      </trkpt>
      <trkpt lat="44.02996" lon="5.98177">
        <ele>519.2</ele>
        <time>2023-02-25T10:07:59Z</time>
      </trkpt>
      <trkpt lat="44.03001" lon="5.98187">
        <ele>518.6</ele>
        <time>2023-02-25T10:08:35Z</time>
      </trkpt>
      <trkpt lat="44.03004" lon="5.98201">
        <ele>514.4</ele>
        <time>2023-02-25T10:08:53Z</time>
      </trkpt>
      <trkpt lat="44.03006" lon="5.98216">
        <ele>512.8</ele>
        <time>2023-02-25T10:09:10Z</time>
      </trkpt>
      <trkpt lat="44.03" lon="5.98216">
        <ele>515.2</ele>
        <time>2023-02-25T10:10:18Z</time>
      </trkpt>
      <trkpt lat="44.03004" lon="5.98228">
        <ele>513.1</ele>
        <time>2023-02-25T10:10:41Z</time>
      </trkpt>
      <trkpt lat="44.03009" lon="5.98235">
        <ele>513</ele>
        <time>2023-02-25T10:11:16Z</time>
      </trkpt>
      <trkpt lat="44.03014" lon="5.98248">
        <ele>515.8</ele>
        <time>2023-02-25T10:12:05Z</time>
      </trkpt>
      <trkpt lat="44.03015" lon="5.98261">
        <ele>515</ele>
        <time>2023-02-25T10:12:29Z</time>
      </trkpt>
      <trkpt lat="44.03019" lon="5.98274">
        <ele>513.8</ele>
        <time>2023-02-25T10:12:49Z</time>
      </trkpt>
      <trkpt lat="44.03022" lon="5.98284">
        <ele>515</ele>
        <time>2023-02-25T10:13:20Z</time>
      </trkpt>
      <trkpt lat="44.03022" lon="5.98287">
        <ele>515.5</ele>
        <time>2023-02-25T10:14:02Z</time>
      </trkpt>
      <trkpt lat="44.03023" lon="5.98302">
        <ele>518.5</ele>
        <time>2023-02-25T10:14:30Z</time>
      </trkpt>
      <trkpt lat="44.03023" lon="5.98315">
        <ele>520.4</ele>
        <time>2023-02-25T10:14:43Z</time>
      </trkpt>
      <trkpt lat="44.03025" lon="5.9833">
        <ele>523.4</ele>
        <time>2023-02-25T10:15:01Z</time>
      </trkpt>
      <trkpt lat="44.03028" lon="5.98342">
        <ele>525.9</ele>
        <time>2023-02-25T10:15:18Z</time>
      </trkpt>
      <trkpt lat="44.03029" lon="5.98359">
        <ele>525.6</ele>
        <time>2023-02-25T10:15:37Z</time>
      </trkpt>
      <trkpt lat="44.03028" lon="5.98374">
        <ele>523.8</ele>
        <time>2023-02-25T10:15:53Z</time>
      </trkpt>
      <trkpt lat="44.03026" lon="5.98387">
        <ele>521.5</ele>
        <time>2023-02-25T10:16:22Z</time>
      </trkpt>
      <trkpt lat="44.03026" lon="5.98399">
        <ele>524.3</ele>
        <time>2023-02-25T10:17:03Z</time>
      </trkpt>
      <trkpt lat="44.03027" lon="5.98411">
        <ele>528.9</ele>
        <time>2023-02-25T10:17:22Z</time>
      </trkpt>
      <trkpt lat="44.03028" lon="5.98423">
        <ele>531.8</ele>
        <time>2023-02-25T10:18:03Z</time>
      </trkpt>
      <trkpt lat="44.03032" lon="5.9843">
        <ele>530.5</ele>
        <time>2023-02-25T10:19:25Z</time>
      </trkpt>
      <trkpt lat="44.03031" lon="5.98441">
        <ele>532.1</ele>
        <time>2023-02-25T10:20:01Z</time>
      </trkpt>
      <trkpt lat="44.03032" lon="5.98453">
        <ele>532.2</ele>
        <time>2023-02-25T10:20:23Z</time>
      </trkpt>
      <trkpt lat="44.03035" lon="5.98466">
        <ele>532.3</ele>
        <time>2023-02-25T10:20:37Z</time>
      </trkpt>
      <trkpt lat="44.03039" lon="5.98476">
        <ele>531.5</ele>
        <time>2023-02-25T10:21:20Z</time>
      </trkpt>
      <trkpt lat="44.03041" lon="5.9849">
        <ele>531.6</ele>
        <time>2023-02-25T10:21:39Z</time>
      </trkpt>
      <trkpt lat="44.03042" lon="5.98504">
        <ele>532.6</ele>
        <time>2023-02-25T10:21:55Z</time>
      </trkpt>
      <trkpt lat="44.03044" lon="5.98518">
        <ele>535</ele>
        <time>2023-02-25T10:22:31Z</time>
      </trkpt>
      <trkpt lat="44.03045" lon="5.9853">
        <ele>537.7</ele>
        <time>2023-02-25T10:22:44Z</time>
      </trkpt>
      <trkpt lat="44.03046" lon="5.98543">
        <ele>541.1</ele>
        <time>2023-02-25T10:23:03Z</time>
      </trkpt>
      <trkpt lat="44.0305" lon="5.98554">
        <ele>545.3</ele>
        <time>2023-02-25T10:23:34Z</time>
      </trkpt>
      <trkpt lat="44.03047" lon="5.98555">
        <ele>544.5</ele>
        <time>2023-02-25T10:24:40Z</time>
      </trkpt>
      <trkpt lat="44.03048" lon="5.98557">
        <ele>545.6</ele>
        <time>2023-02-25T10:26:27Z</time>
      </trkpt>
      <trkpt lat="44.03054" lon="5.98558">
        <ele>547.9</ele>
        <time>2023-02-25T10:27:35Z</time>
      </trkpt>
      <trkpt lat="44.03051" lon="5.9856">
        <ele>547.2</ele>
        <time>2023-02-25T10:28:33Z</time>
      </trkpt>
      <trkpt lat="44.03052" lon="5.98567">
        <ele>550.2</ele>
        <time>2023-02-25T10:30:00Z</time>
      </trkpt>
      <trkpt lat="44.03055" lon="5.98577">
        <ele>554.4</ele>
        <time>2023-02-25T10:30:27Z</time>
      </trkpt>
      <trkpt lat="44.03057" lon="5.98591">
        <ele>556.7</ele>
        <time>2023-02-25T10:30:52Z</time>
      </trkpt>
      <trkpt lat="44.03057" lon="5.98603">
        <ele>558.1</ele>
        <time>2023-02-25T10:31:20Z</time>
      </trkpt>
      <trkpt lat="44.03053" lon="5.9862">
        <ele>559.6</ele>
        <time>2023-02-25T10:31:42Z</time>
      </trkpt>
      <trkpt lat="44.03053" lon="5.98636">
        <ele>560.9</ele>
        <time>2023-02-25T10:32:01Z</time>
      </trkpt>
      <trkpt lat="44.03053" lon="5.98649">
        <ele>560.6</ele>
        <time>2023-02-25T10:32:17Z</time>
      </trkpt>
      <trkpt lat="44.03052" lon="5.98665">
        <ele>558.7</ele>
        <time>2023-02-25T10:32:39Z</time>
      </trkpt>
      <trkpt lat="44.03052" lon="5.98677">
        <ele>559.5</ele>
        <time>2023-02-25T10:33:07Z</time>
      </trkpt>
      <trkpt lat="44.03055" lon="5.98689">
        <ele>561.9</ele>
        <time>2023-02-25T10:33:26Z</time>
      </trkpt>
      <trkpt lat="44.03054" lon="5.98702">
        <ele>563.9</ele>
        <time>2023-02-25T10:33:46Z</time>
      </trkpt>
      <trkpt lat="44.03056" lon="5.98715">
        <ele>567.5</ele>
        <time>2023-02-25T10:34:03Z</time>
      </trkpt>
      <trkpt lat="44.03056" lon="5.98732">
        <ele>572.2</ele>
        <time>2023-02-25T10:34:27Z</time>
      </trkpt>
      <trkpt lat="44.03057" lon="5.98743">
        <ele>575</ele>
        <time>2023-02-25T10:34:52Z</time>
      </trkpt>
      <trkpt lat="44.03055" lon="5.98752">
        <ele>577.7</ele>
        <time>2023-02-25T10:35:12Z</time>
      </trkpt>
      <trkpt lat="44.03055" lon="5.9876">
        <ele>578.6</ele>
        <time>2023-02-25T10:35:30Z</time>
      </trkpt>
      <trkpt lat="44.03055" lon="5.98767">
        <ele>579.2</ele>
        <time>2023-02-25T10:35:48Z</time>
      </trkpt>
      <trkpt lat="44.03058" lon="5.98762">
        <ele>578.1</ele>
        <time>2023-02-25T10:36:12Z</time>
      </trkpt>
      <trkpt lat="44.03059" lon="5.98753">
        <ele>575.9</ele>
        <time>2023-02-25T10:36:41Z</time>
      </trkpt>
      <trkpt lat="44.03055" lon="5.98747">
        <ele>577</ele>
        <time>2023-02-25T10:37:35Z</time>
      </trkpt>
      <trkpt lat="44.03055" lon="5.98755">
        <ele>578.4</ele>
        <time>2023-02-25T10:38:27Z</time>
      </trkpt>
      <trkpt lat="44.03056" lon="5.98767">
        <ele>579.3</ele>
        <time>2023-02-25T10:38:48Z</time>
      </trkpt>
      <trkpt lat="44.03057" lon="5.9878">
        <ele>580.6</ele>
        <time>2023-02-25T10:39:06Z</time>
      </trkpt>
      <trkpt lat="44.03059" lon="5.98792">
        <ele>581.9</ele>
        <time>2023-02-25T10:39:26Z</time>
      </trkpt>
      <trkpt lat="44.03062" lon="5.98805">
        <ele>583.3</ele>
        <time>2023-02-25T10:39:44Z</time>
      </trkpt>
      <trkpt lat="44.03061" lon="5.9882">
        <ele>585.4</ele>
        <time>2023-02-25T10:40:00Z</time>
      </trkpt>
      <trkpt lat="44.03057" lon="5.98837">
        <ele>589.2</ele>
        <time>2023-02-25T10:40:16Z</time>
      </trkpt>
      <trkpt lat="44.03059" lon="5.98849">
        <ele>589.2</ele>
        <time>2023-02-25T10:40:45Z</time>
      </trkpt>
      <trkpt lat="44.03059" lon="5.9886">
        <ele>590</ele>
        <time>2023-02-25T10:41:02Z</time>
      </trkpt>
      <trkpt lat="44.0306" lon="5.98874">
        <ele>589.9</ele>
        <time>2023-02-25T10:41:16Z</time>
      </trkpt>
      <trkpt lat="44.03063" lon="5.98888">
        <ele>589.4</ele>
        <time>2023-02-25T10:41:29Z</time>
      </trkpt>
      <trkpt lat="44.03065" lon="5.98903">
        <ele>589.9</ele>
        <time>2023-02-25T10:41:44Z</time>
      </trkpt>
      <trkpt lat="44.03067" lon="5.98916">
        <ele>590.3</ele>
        <time>2023-02-25T10:41:57Z</time>
      </trkpt>
      <trkpt lat="44.03068" lon="5.98929">
        <ele>591.9</ele>
        <time>2023-02-25T10:42:09Z</time>
      </trkpt>
      <trkpt lat="44.03071" lon="5.98946">
        <ele>594.1</ele>
        <time>2023-02-25T10:42:26Z</time>
      </trkpt>
      <trkpt lat="44.03075" lon="5.98954">
        <ele>594.8</ele>
        <time>2023-02-25T10:44:17Z</time>
      </trkpt>
      <trkpt lat="44.03072" lon="5.98953">
        <ele>594.4</ele>
        <time>2023-02-25T10:45:45Z</time>
      </trkpt>
      <trkpt lat="44.03078" lon="5.98965">
        <ele>596</ele>
        <time>2023-02-25T10:46:19Z</time>
      </trkpt>
      <trkpt lat="44.03078" lon="5.98979">
        <ele>596.7</ele>
        <time>2023-02-25T10:46:28Z</time>
      </trkpt>
      <trkpt lat="44.03082" lon="5.98991">
        <ele>599.6</ele>
        <time>2023-02-25T10:46:39Z</time>
      </trkpt>
      <trkpt lat="44.03084" lon="5.99003">
        <ele>600.1</ele>
        <time>2023-02-25T10:47:08Z</time>
      </trkpt>
      <trkpt lat="44.03089" lon="5.99006">
        <ele>598.1</ele>
        <time>2023-02-25T10:47:38Z</time>
      </trkpt>
      <trkpt lat="44.03094" lon="5.9902">
        <ele>596.5</ele>
        <time>2023-02-25T10:47:55Z</time>
      </trkpt>
      <trkpt lat="44.03099" lon="5.99036">
        <ele>596.1</ele>
        <time>2023-02-25T10:48:08Z</time>
      </trkpt>
      <trkpt lat="44.03106" lon="5.99052">
        <ele>597.7</ele>
        <time>2023-02-25T10:48:19Z</time>
      </trkpt>
      <trkpt lat="44.03115" lon="5.99064">
        <ele>596.6</ele>
        <time>2023-02-25T10:48:30Z</time>
      </trkpt>
      <trkpt lat="44.03124" lon="5.99072">
        <ele>593.9</ele>
        <time>2023-02-25T10:48:42Z</time>
      </trkpt>
      <trkpt lat="44.03135" lon="5.99081">
        <ele>594.9</ele>
        <time>2023-02-25T10:48:55Z</time>
      </trkpt>
      <trkpt lat="44.03144" lon="5.99095">
        <ele>593.3</ele>
        <time>2023-02-25T10:49:08Z</time>
      </trkpt>
      <trkpt lat="44.03146" lon="5.99097">
        <ele>592.9</ele>
        <time>2023-02-25T10:54:37Z</time>
      </trkpt>
      <trkpt lat="44.0315" lon="5.991">
        <ele>592.1</ele>
        <time>2023-02-25T10:55:27Z</time>
      </trkpt>
      <trkpt lat="44.0315" lon="5.99104">
        <ele>592.2</ele>
        <time>2023-02-25T10:56:33Z</time>
      </trkpt>
      <trkpt lat="44.03156" lon="5.99121">
        <ele>593.7</ele>
        <time>2023-02-25T10:56:52Z</time>
      </trkpt>
      <trkpt lat="44.03159" lon="5.99136">
        <ele>596.2</ele>
        <time>2023-02-25T10:57:09Z</time>
      </trkpt>
      <trkpt lat="44.03159" lon="5.9915">
        <ele>598.2</ele>
        <time>2023-02-25T10:57:22Z</time>
      </trkpt>
      <trkpt lat="44.03163" lon="5.99164">
        <ele>601.2</ele>
        <time>2023-02-25T10:57:36Z</time>
      </trkpt>
      <trkpt lat="44.03164" lon="5.99178">
        <ele>603.7</ele>
        <time>2023-02-25T10:57:51Z</time>
      </trkpt>
      <trkpt lat="44.03165" lon="5.99192">
        <ele>605.8</ele>
        <time>2023-02-25T10:58:04Z</time>
      </trkpt>
      <trkpt lat="44.03168" lon="5.99206">
        <ele>606.8</ele>
        <time>2023-02-25T10:58:15Z</time>
      </trkpt>
      <trkpt lat="44.03168" lon="5.99217">
        <ele>607.1</ele>
        <time>2023-02-25T10:58:28Z</time>
      </trkpt>
      <trkpt lat="44.0317" lon="5.99234">
        <ele>607</ele>
        <time>2023-02-25T10:58:43Z</time>
      </trkpt>
      <trkpt lat="44.03166" lon="5.99249">
        <ele>608.9</ele>
        <time>2023-02-25T10:58:56Z</time>
      </trkpt>
      <trkpt lat="44.03163" lon="5.99261">
        <ele>611.6</ele>
        <time>2023-02-25T10:59:14Z</time>
      </trkpt>
      <trkpt lat="44.03161" lon="5.99275">
        <ele>615.1</ele>
        <time>2023-02-25T10:59:29Z</time>
      </trkpt>
      <trkpt lat="44.03158" lon="5.99277">
        <ele>615.8</ele>
        <time>2023-02-25T10:59:47Z</time>
      </trkpt>
      <trkpt lat="44.03155" lon="5.99287">
        <ele>619</ele>
        <time>2023-02-25T10:59:56.098Z</time>
      </trkpt>
      <trkpt lat="44.0315" lon="5.99295">
        <ele>621.7</ele>
        <time>2023-02-25T11:00:05Z</time>
      </trkpt>
      <trkpt lat="44.03142" lon="5.99299">
        <ele>623.6</ele>
        <time>2023-02-25T11:00:20Z</time>
      </trkpt>
      <trkpt lat="44.03139" lon="5.99304">
        <ele>625.4</ele>
        <time>2023-02-25T11:00:38Z</time>
      </trkpt>
      <trkpt lat="44.03133" lon="5.99314">
        <ele>629.4</ele>
        <time>2023-02-25T11:00:54Z</time>
      </trkpt>
      <trkpt lat="44.03126" lon="5.99319">
        <ele>630.8</ele>
        <time>2023-02-25T11:01:09Z</time>
      </trkpt>
      <trkpt lat="44.03127" lon="5.99326">
        <ele>632.9</ele>
        <time>2023-02-25T11:01:37Z</time>
      </trkpt>
      <trkpt lat="44.0313" lon="5.99338">
        <ele>636.6</ele>
        <time>2023-02-25T11:01:58Z</time>
      </trkpt>
      <trkpt lat="44.03133" lon="5.99351">
        <ele>641</ele>
        <time>2023-02-25T11:02:26Z</time>
      </trkpt>
      <trkpt lat="44.03137" lon="5.99362">
        <ele>646.2</ele>
        <time>2023-02-25T11:02:42Z</time>
      </trkpt>
      <trkpt lat="44.03136" lon="5.99368">
        <ele>647.1</ele>
        <time>2023-02-25T11:02:56Z</time>
      </trkpt>
      <trkpt lat="44.03138" lon="5.99383">
        <ele>651.9</ele>
        <time>2023-02-25T11:03:15Z</time>
      </trkpt>
      <trkpt lat="44.03143" lon="5.99393">
        <ele>653.8</ele>
        <time>2023-02-25T11:03:35Z</time>
      </trkpt>
      <trkpt lat="44.03145" lon="5.99402">
        <ele>654.4</ele>
        <time>2023-02-25T11:03:54Z</time>
      </trkpt>
      <trkpt lat="44.03154" lon="5.99412">
        <ele>654.2</ele>
        <time>2023-02-25T11:07:13Z</time>
      </trkpt>
      <trkpt lat="44.03154" lon="5.99414">
        <ele>654.4</ele>
        <time>2023-02-25T11:08:52Z</time>
      </trkpt>
      <trkpt lat="44.0315" lon="5.99419">
        <ele>655.6</ele>
        <time>2023-02-25T11:09:49Z</time>
      </trkpt>
      <trkpt lat="44.03152" lon="5.99426">
        <ele>655.8</ele>
        <time>2023-02-25T11:11:10Z</time>
      </trkpt>
      <trkpt lat="44.03151" lon="5.99437">
        <ele>656.8</ele>
        <time>2023-02-25T11:11:24Z</time>
      </trkpt>
      <trkpt lat="44.03152" lon="5.9945">
        <ele>657.5</ele>
        <time>2023-02-25T11:11:36Z</time>
      </trkpt>
      <trkpt lat="44.03153" lon="5.99463">
        <ele>658.3</ele>
        <time>2023-02-25T11:11:48Z</time>
      </trkpt>
      <trkpt lat="44.03154" lon="5.99478">
        <ele>659.3</ele>
        <time>2023-02-25T11:12:00Z</time>
      </trkpt>
      <trkpt lat="44.03154" lon="5.99493">
        <ele>660.4</ele>
        <time>2023-02-25T11:12:12Z</time>
      </trkpt>
      <trkpt lat="44.03153" lon="5.99507">
        <ele>661.5</ele>
        <time>2023-02-25T11:12:23Z</time>
      </trkpt>
      <trkpt lat="44.03154" lon="5.99523">
        <ele>662.6</ele>
        <time>2023-02-25T11:12:34Z</time>
      </trkpt>
      <trkpt lat="44.03155" lon="5.99536">
        <ele>663.4</ele>
        <time>2023-02-25T11:12:45Z</time>
      </trkpt>
      <trkpt lat="44.03154" lon="5.9955">
        <ele>664.2</ele>
        <time>2023-02-25T11:12:57Z</time>
      </trkpt>
      <trkpt lat="44.03155" lon="5.99565">
        <ele>664.4</ele>
        <time>2023-02-25T11:13:07Z</time>
      </trkpt>
      <trkpt lat="44.03154" lon="5.9958">
        <ele>664.5</ele>
        <time>2023-02-25T11:13:16Z</time>
      </trkpt>
      <trkpt lat="44.03154" lon="5.99595">
        <ele>664.3</ele>
        <time>2023-02-25T11:13:26Z</time>
      </trkpt>
      <trkpt lat="44.03155" lon="5.9961">
        <ele>664.2</ele>
        <time>2023-02-25T11:13:35Z</time>
      </trkpt>
      <trkpt lat="44.03158" lon="5.99624">
        <ele>665.8</ele>
        <time>2023-02-25T11:13:44Z</time>
      </trkpt>
      <trkpt lat="44.0316" lon="5.99639">
        <ele>668.2</ele>
        <time>2023-02-25T11:13:55Z</time>
      </trkpt>
      <trkpt lat="44.03161" lon="5.99653">
        <ele>669.9</ele>
        <time>2023-02-25T11:14:07Z</time>
      </trkpt>
      <trkpt lat="44.03165" lon="5.99667">
        <ele>673.5</ele>
        <time>2023-02-25T11:14:18Z</time>
      </trkpt>
      <trkpt lat="44.0317" lon="5.99681">
        <ele>671.7</ele>
        <time>2023-02-25T11:14:27Z</time>
      </trkpt>
      <trkpt lat="44.03174" lon="5.99696">
        <ele>669</ele>
        <time>2023-02-25T11:14:39Z</time>
      </trkpt>
      <trkpt lat="44.03173" lon="5.99711">
        <ele>670.5</ele>
        <time>2023-02-25T11:14:48Z</time>
      </trkpt>
      <trkpt lat="44.03174" lon="5.99723">
        <ele>670.7</ele>
        <time>2023-02-25T11:14:57Z</time>
      </trkpt>
      <trkpt lat="44.03174" lon="5.99737">
        <ele>672.2</ele>
        <time>2023-02-25T11:15:08Z</time>
      </trkpt>
      <trkpt lat="44.03174" lon="5.99752">
        <ele>674.1</ele>
        <time>2023-02-25T11:15:19Z</time>
      </trkpt>
      <trkpt lat="44.03175" lon="5.99766">
        <ele>674.5</ele>
        <time>2023-02-25T11:15:30Z</time>
      </trkpt>
      <trkpt lat="44.03178" lon="5.99779">
        <ele>674.7</ele>
        <time>2023-02-25T11:15:41Z</time>
      </trkpt>
      <trkpt lat="44.03181" lon="5.99793">
        <ele>675.6</ele>
        <time>2023-02-25T11:15:52Z</time>
      </trkpt>
      <trkpt lat="44.03186" lon="5.99807">
        <ele>677</ele>
        <time>2023-02-25T11:16:03Z</time>
      </trkpt>
      <trkpt lat="44.03192" lon="5.9982">
        <ele>677.6</ele>
        <time>2023-02-25T11:16:13Z</time>
      </trkpt>
      <trkpt lat="44.03197" lon="5.99831">
        <ele>677.4</ele>
        <time>2023-02-25T11:16:22Z</time>
      </trkpt>
      <trkpt lat="44.03201" lon="5.99844">
        <ele>676.3</ele>
        <time>2023-02-25T11:16:32Z</time>
      </trkpt>
      <trkpt lat="44.03204" lon="5.99856">
        <ele>676</ele>
        <time>2023-02-25T11:16:41Z</time>
      </trkpt>
      <trkpt lat="44.03207" lon="5.9987">
        <ele>676.6</ele>
        <time>2023-02-25T11:16:51Z</time>
      </trkpt>
      <trkpt lat="44.03208" lon="5.99885">
        <ele>678.7</ele>
        <time>2023-02-25T11:17:04Z</time>
      </trkpt>
      <trkpt lat="44.03205" lon="5.99899">
        <ele>681.5</ele>
        <time>2023-02-25T11:17:18Z</time>
      </trkpt>
      <trkpt lat="44.03204" lon="5.99913">
        <ele>684.2</ele>
        <time>2023-02-25T11:17:34Z</time>
      </trkpt>
      <trkpt lat="44.03203" lon="5.99928">
        <ele>687.4</ele>
        <time>2023-02-25T11:17:50Z</time>
      </trkpt>
      <trkpt lat="44.03202" lon="5.99944">
        <ele>690.5</ele>
        <time>2023-02-25T11:18:08Z</time>
      </trkpt>
      <trkpt lat="44.03202" lon="5.9996">
        <ele>693.2</ele>
        <time>2023-02-25T11:18:28Z</time>
      </trkpt>
      <trkpt lat="44.03206" lon="5.99974">
        <ele>694.3</ele>
        <time>2023-02-25T11:18:42Z</time>
      </trkpt>
      <trkpt lat="44.03208" lon="5.99989">
        <ele>695.3</ele>
        <time>2023-02-25T11:18:57Z</time>
      </trkpt>
      <trkpt lat="44.03211" lon="6.00003">
        <ele>696.8</ele>
        <time>2023-02-25T11:19:12Z</time>
      </trkpt>
      <trkpt lat="44.03214" lon="6.0002">
        <ele>698.9</ele>
        <time>2023-02-25T11:19:28Z</time>
      </trkpt>
      <trkpt lat="44.03216" lon="6.00035">
        <ele>701.1</ele>
        <time>2023-02-25T11:19:41Z</time>
      </trkpt>
      <trkpt lat="44.0322" lon="6.00051">
        <ele>704.6</ele>
        <time>2023-02-25T11:19:53Z</time>
      </trkpt>
      <trkpt lat="44.03223" lon="6.00066">
        <ele>706.7</ele>
        <time>2023-02-25T11:20:04Z</time>
      </trkpt>
      <trkpt lat="44.03228" lon="6.0008">
        <ele>706.2</ele>
        <time>2023-02-25T11:20:16Z</time>
      </trkpt>
      <trkpt lat="44.03229" lon="6.00093">
        <ele>707.1</ele>
        <time>2023-02-25T11:20:28Z</time>
      </trkpt>
      <trkpt lat="44.0323" lon="6.00108">
        <ele>708.3</ele>
        <time>2023-02-25T11:20:40Z</time>
      </trkpt>
      <trkpt lat="44.03232" lon="6.00122">
        <ele>709.8</ele>
        <time>2023-02-25T11:20:53Z</time>
      </trkpt>
      <trkpt lat="44.03235" lon="6.00136">
        <ele>711.6</ele>
        <time>2023-02-25T11:21:06Z</time>
      </trkpt>
      <trkpt lat="44.03236" lon="6.00146">
        <ele>712.2</ele>
        <time>2023-02-25T12:10:14Z</time>
      </trkpt>
      <trkpt lat="44.03235" lon="6.00149">
        <ele>712.4</ele>
        <time>2023-02-25T12:11:32Z</time>
      </trkpt>
      <trkpt lat="44.03231" lon="6.00162">
        <ele>713.3</ele>
        <time>2023-02-25T12:12:35Z</time>
      </trkpt>
      <trkpt lat="44.03224" lon="6.00176">
        <ele>713.3</ele>
        <time>2023-02-25T12:12:47Z</time>
      </trkpt>
      <trkpt lat="44.03217" lon="6.00186">
        <ele>712.2</ele>
        <time>2023-02-25T12:12:58Z</time>
      </trkpt>
      <trkpt lat="44.0321" lon="6.00199">
        <ele>711.4</ele>
        <time>2023-02-25T12:13:11Z</time>
      </trkpt>
      <trkpt lat="44.03204" lon="6.00215">
        <ele>711.3</ele>
        <time>2023-02-25T12:13:23Z</time>
      </trkpt>
      <trkpt lat="44.03201" lon="6.00232">
        <ele>711.7</ele>
        <time>2023-02-25T12:13:35Z</time>
      </trkpt>
      <trkpt lat="44.03198" lon="6.00247">
        <ele>712.3</ele>
        <time>2023-02-25T12:13:47Z</time>
      </trkpt>
      <trkpt lat="44.03196" lon="6.00263">
        <ele>714.7</ele>
        <time>2023-02-25T12:13:57Z</time>
      </trkpt>
      <trkpt lat="44.03195" lon="6.00279">
        <ele>717</ele>
        <time>2023-02-25T12:14:09Z</time>
      </trkpt>
      <trkpt lat="44.03197" lon="6.00293">
        <ele>718.4</ele>
        <time>2023-02-25T12:14:22Z</time>
      </trkpt>
      <trkpt lat="44.032" lon="6.00306">
        <ele>719.8</ele>
        <time>2023-02-25T12:14:38Z</time>
      </trkpt>
      <trkpt lat="44.03207" lon="6.00315">
        <ele>721</ele>
        <time>2023-02-25T12:14:51Z</time>
      </trkpt>
      <trkpt lat="44.03211" lon="6.00325">
        <ele>723.1</ele>
        <time>2023-02-25T12:15:05Z</time>
      </trkpt>
      <trkpt lat="44.03214" lon="6.00341">
        <ele>726.2</ele>
        <time>2023-02-25T12:15:17Z</time>
      </trkpt>
      <trkpt lat="44.03213" lon="6.00354">
        <ele>727.3</ele>
        <time>2023-02-25T12:15:28Z</time>
      </trkpt>
      <trkpt lat="44.03213" lon="6.00369">
        <ele>728.8</ele>
        <time>2023-02-25T12:15:39Z</time>
      </trkpt>
      <trkpt lat="44.03213" lon="6.00383">
        <ele>729.9</ele>
        <time>2023-02-25T12:15:50Z</time>
      </trkpt>
      <trkpt lat="44.03212" lon="6.00398">
        <ele>731</ele>
        <time>2023-02-25T12:16:01Z</time>
      </trkpt>
      <trkpt lat="44.0321" lon="6.00413">
        <ele>731.3</ele>
        <time>2023-02-25T12:16:13Z</time>
      </trkpt>
      <trkpt lat="44.03205" lon="6.00428">
        <ele>731.2</ele>
        <time>2023-02-25T12:16:25Z</time>
      </trkpt>
      <trkpt lat="44.032" lon="6.00445">
        <ele>731.6</ele>
        <time>2023-02-25T12:16:37Z</time>
      </trkpt>
      <trkpt lat="44.03193" lon="6.0046">
        <ele>731.3</ele>
        <time>2023-02-25T12:16:48Z</time>
      </trkpt>
      <trkpt lat="44.03186" lon="6.00474">
        <ele>730.2</ele>
        <time>2023-02-25T12:16:58Z</time>
      </trkpt>
      <trkpt lat="44.0318" lon="6.00488">
        <ele>728.9</ele>
        <time>2023-02-25T12:17:08Z</time>
      </trkpt>
      <trkpt lat="44.03177" lon="6.00506">
        <ele>728</ele>
        <time>2023-02-25T12:17:19Z</time>
      </trkpt>
      <trkpt lat="44.03177" lon="6.00523">
        <ele>726.7</ele>
        <time>2023-02-25T12:17:29Z</time>
      </trkpt>
      <trkpt lat="44.03177" lon="6.00536">
        <ele>726.1</ele>
        <time>2023-02-25T12:17:38Z</time>
      </trkpt>
      <trkpt lat="44.03176" lon="6.00551">
        <ele>725.5</ele>
        <time>2023-02-25T12:17:48Z</time>
      </trkpt>
      <trkpt lat="44.0317" lon="6.00568">
        <ele>725.8</ele>
        <time>2023-02-25T12:17:59Z</time>
      </trkpt>
      <trkpt lat="44.03164" lon="6.00581">
        <ele>725.9</ele>
        <time>2023-02-25T12:18:09Z</time>
      </trkpt>
      <trkpt lat="44.03159" lon="6.00597">
        <ele>726.4</ele>
        <time>2023-02-25T12:18:20Z</time>
      </trkpt>
      <trkpt lat="44.03154" lon="6.00615">
        <ele>726.5</ele>
        <time>2023-02-25T12:18:33Z</time>
      </trkpt>
      <trkpt lat="44.03148" lon="6.00634">
        <ele>724.4</ele>
        <time>2023-02-25T12:18:44Z</time>
      </trkpt>
      <trkpt lat="44.03148" lon="6.00651">
        <ele>723.1</ele>
        <time>2023-02-25T12:18:54Z</time>
      </trkpt>
      <trkpt lat="44.03148" lon="6.00668">
        <ele>721.2</ele>
        <time>2023-02-25T12:19:04Z</time>
      </trkpt>
      <trkpt lat="44.03147" lon="6.00684">
        <ele>719.2</ele>
        <time>2023-02-25T12:19:13Z</time>
      </trkpt>
      <trkpt lat="44.03145" lon="6.007">
        <ele>718</ele>
        <time>2023-02-25T12:19:23Z</time>
      </trkpt>
      <trkpt lat="44.03144" lon="6.00715">
        <ele>718.2</ele>
        <time>2023-02-25T12:19:33Z</time>
      </trkpt>
      <trkpt lat="44.03138" lon="6.00732">
        <ele>719.2</ele>
        <time>2023-02-25T12:19:43Z</time>
      </trkpt>
      <trkpt lat="44.03132" lon="6.00746">
        <ele>719</ele>
        <time>2023-02-25T12:19:52Z</time>
      </trkpt>
      <trkpt lat="44.03128" lon="6.00758">
        <ele>719.9</ele>
        <time>2023-02-25T12:20:02Z</time>
      </trkpt>
      <trkpt lat="44.0312" lon="6.00768">
        <ele>720.7</ele>
        <time>2023-02-25T12:20:14Z</time>
      </trkpt>
      <trkpt lat="44.03111" lon="6.00782">
        <ele>721.8</ele>
        <time>2023-02-25T12:20:27Z</time>
      </trkpt>
      <trkpt lat="44.03107" lon="6.00796">
        <ele>723.7</ele>
        <time>2023-02-25T12:20:53Z</time>
      </trkpt>
      <trkpt lat="44.03102" lon="6.00811">
        <ele>724.5</ele>
        <time>2023-02-25T12:21:05Z</time>
      </trkpt>
      <trkpt lat="44.03102" lon="6.00824">
        <ele>724.1</ele>
        <time>2023-02-25T12:21:25Z</time>
      </trkpt>
      <trkpt lat="44.03108" lon="6.00836">
        <ele>724.9</ele>
        <time>2023-02-25T12:21:36Z</time>
      </trkpt>
      <trkpt lat="44.03112" lon="6.00848">
        <ele>724.1</ele>
        <time>2023-02-25T12:21:46Z</time>
      </trkpt>
      <trkpt lat="44.03118" lon="6.00861">
        <ele>723.1</ele>
        <time>2023-02-25T12:21:57Z</time>
      </trkpt>
      <trkpt lat="44.03125" lon="6.00873">
        <ele>722.5</ele>
        <time>2023-02-25T12:22:08Z</time>
      </trkpt>
      <trkpt lat="44.0313" lon="6.00886">
        <ele>721.2</ele>
        <time>2023-02-25T12:22:18Z</time>
      </trkpt>
      <trkpt lat="44.03134" lon="6.00899">
        <ele>720.8</ele>
        <time>2023-02-25T12:22:28Z</time>
      </trkpt>
      <trkpt lat="44.03133" lon="6.00917">
        <ele>720.8</ele>
        <time>2023-02-25T12:24:27Z</time>
      </trkpt>
      <trkpt lat="44.03129" lon="6.00918">
        <ele>720.7</ele>
        <time>2023-02-25T12:26:00Z</time>
      </trkpt>
      <trkpt lat="44.0312" lon="6.00927">
        <ele>721.4</ele>
        <time>2023-02-25T12:26:27Z</time>
      </trkpt>
      <trkpt lat="44.0311" lon="6.00932">
        <ele>721.6</ele>
        <time>2023-02-25T12:26:38Z</time>
      </trkpt>
      <trkpt lat="44.03099" lon="6.00941">
        <ele>720.8</ele>
        <time>2023-02-25T12:26:50Z</time>
      </trkpt>
      <trkpt lat="44.03089" lon="6.00945">
        <ele>719.8</ele>
        <time>2023-02-25T12:27:00Z</time>
      </trkpt>
      <trkpt lat="44.03079" lon="6.00948">
        <ele>719</ele>
        <time>2023-02-25T12:27:10Z</time>
      </trkpt>
      <trkpt lat="44.03069" lon="6.00949">
        <ele>717.4</ele>
        <time>2023-02-25T12:27:18Z</time>
      </trkpt>
      <trkpt lat="44.0306" lon="6.00952">
        <ele>716.6</ele>
        <time>2023-02-25T12:27:26Z</time>
      </trkpt>
      <trkpt lat="44.03051" lon="6.00956">
        <ele>715.7</ele>
        <time>2023-02-25T12:27:35Z</time>
      </trkpt>
      <trkpt lat="44.03042" lon="6.0096">
        <ele>714.9</ele>
        <time>2023-02-25T12:27:43Z</time>
      </trkpt>
      <trkpt lat="44.03033" lon="6.00964">
        <ele>714.2</ele>
        <time>2023-02-25T12:27:51Z</time>
      </trkpt>
      <trkpt lat="44.03023" lon="6.00964">
        <ele>712.2</ele>
        <time>2023-02-25T12:27:59Z</time>
      </trkpt>
      <trkpt lat="44.03015" lon="6.00966">
        <ele>711.2</ele>
        <time>2023-02-25T12:28:06Z</time>
      </trkpt>
      <trkpt lat="44.03007" lon="6.00974">
        <ele>713</ele>
        <time>2023-02-25T12:28:14Z</time>
      </trkpt>
      <trkpt lat="44.02997" lon="6.00976">
        <ele>711.1</ele>
        <time>2023-02-25T12:28:22Z</time>
      </trkpt>
      <trkpt lat="44.02989" lon="6.00978">
        <ele>708.7</ele>
        <time>2023-02-25T12:28:29Z</time>
      </trkpt>
      <trkpt lat="44.02981" lon="6.00984">
        <ele>706.9</ele>
        <time>2023-02-25T12:28:38Z</time>
      </trkpt>
      <trkpt lat="44.02975" lon="6.00992">
        <ele>706.1</ele>
        <time>2023-02-25T12:28:47Z</time>
      </trkpt>
      <trkpt lat="44.02968" lon="6.01003">
        <ele>705.7</ele>
        <time>2023-02-25T12:28:57Z</time>
      </trkpt>
      <trkpt lat="44.0296" lon="6.0101">
        <ele>703.5</ele>
        <time>2023-02-25T12:29:07Z</time>
      </trkpt>
      <trkpt lat="44.02954" lon="6.01022">
        <ele>703.2</ele>
        <time>2023-02-25T12:29:16Z</time>
      </trkpt>
      <trkpt lat="44.02948" lon="6.01034">
        <ele>702.8</ele>
        <time>2023-02-25T12:29:27Z</time>
      </trkpt>
      <trkpt lat="44.0294" lon="6.01045">
        <ele>701.2</ele>
        <time>2023-02-25T12:29:36Z</time>
      </trkpt>
      <trkpt lat="44.02934" lon="6.01057">
        <ele>701.1</ele>
        <time>2023-02-25T12:29:47Z</time>
      </trkpt>
      <trkpt lat="44.02927" lon="6.01067">
        <ele>699</ele>
        <time>2023-02-25T12:29:58Z</time>
      </trkpt>
      <trkpt lat="44.02921" lon="6.01078">
        <ele>697.5</ele>
        <time>2023-02-25T12:30:09Z</time>
      </trkpt>
      <trkpt lat="44.02913" lon="6.01088">
        <ele>695</ele>
        <time>2023-02-25T12:30:19Z</time>
      </trkpt>
      <trkpt lat="44.02906" lon="6.01098">
        <ele>694.3</ele>
        <time>2023-02-25T12:30:31Z</time>
      </trkpt>
      <trkpt lat="44.02897" lon="6.01107">
        <ele>692.4</ele>
        <time>2023-02-25T12:30:42Z</time>
      </trkpt>
      <trkpt lat="44.02891" lon="6.01121">
        <ele>692.3</ele>
        <time>2023-02-25T12:30:51Z</time>
      </trkpt>
      <trkpt lat="44.02883" lon="6.01132">
        <ele>690.2</ele>
        <time>2023-02-25T12:31:01Z</time>
      </trkpt>
      <trkpt lat="44.02878" lon="6.01144">
        <ele>689.7</ele>
        <time>2023-02-25T12:31:12Z</time>
      </trkpt>
      <trkpt lat="44.02872" lon="6.01154">
        <ele>688.8</ele>
        <time>2023-02-25T12:31:24Z</time>
      </trkpt>
      <trkpt lat="44.02863" lon="6.01166">
        <ele>687.1</ele>
        <time>2023-02-25T12:31:35Z</time>
      </trkpt>
      <trkpt lat="44.02857" lon="6.01178">
        <ele>686.1</ele>
        <time>2023-02-25T12:31:45Z</time>
      </trkpt>
      <trkpt lat="44.02851" lon="6.01192">
        <ele>686.2</ele>
        <time>2023-02-25T12:31:57Z</time>
      </trkpt>
      <trkpt lat="44.02844" lon="6.01207">
        <ele>685.4</ele>
        <time>2023-02-25T12:32:07Z</time>
      </trkpt>
      <trkpt lat="44.02836" lon="6.01218">
        <ele>682.6</ele>
        <time>2023-02-25T12:32:18Z</time>
      </trkpt>
      <trkpt lat="44.02829" lon="6.01231">
        <ele>682.2</ele>
        <time>2023-02-25T12:32:28Z</time>
      </trkpt>
      <trkpt lat="44.02821" lon="6.01246">
        <ele>682</ele>
        <time>2023-02-25T12:32:39Z</time>
      </trkpt>
      <trkpt lat="44.02813" lon="6.01257">
        <ele>680.7</ele>
        <time>2023-02-25T12:32:49Z</time>
      </trkpt>
      <trkpt lat="44.02806" lon="6.01268">
        <ele>679.9</ele>
        <time>2023-02-25T12:33:00Z</time>
      </trkpt>
      <trkpt lat="44.02799" lon="6.01281">
        <ele>680.1</ele>
        <time>2023-02-25T12:33:09Z</time>
      </trkpt>
      <trkpt lat="44.0279" lon="6.0129">
        <ele>678.4</ele>
        <time>2023-02-25T12:33:18Z</time>
      </trkpt>
      <trkpt lat="44.02782" lon="6.01298">
        <ele>677</ele>
        <time>2023-02-25T12:33:29Z</time>
      </trkpt>
      <trkpt lat="44.02781" lon="6.01302">
        <ele>677.3</ele>
        <time>2023-02-25T12:34:11Z</time>
      </trkpt>
      <trkpt lat="44.02772" lon="6.01313">
        <ele>676.4</ele>
        <time>2023-02-25T12:34:20Z</time>
      </trkpt>
      <trkpt lat="44.02763" lon="6.01321">
        <ele>674.1</ele>
        <time>2023-02-25T12:34:29Z</time>
      </trkpt>
      <trkpt lat="44.02755" lon="6.01332">
        <ele>673.2</ele>
        <time>2023-02-25T12:34:40Z</time>
      </trkpt>
      <trkpt lat="44.02747" lon="6.01344">
        <ele>672.6</ele>
        <time>2023-02-25T12:34:50Z</time>
      </trkpt>
      <trkpt lat="44.02738" lon="6.01355">
        <ele>671.2</ele>
        <time>2023-02-25T12:35:00Z</time>
      </trkpt>
      <trkpt lat="44.0273" lon="6.01365">
        <ele>670.1</ele>
        <time>2023-02-25T12:35:09Z</time>
      </trkpt>
      <trkpt lat="44.02723" lon="6.01377">
        <ele>670</ele>
        <time>2023-02-25T12:35:18Z</time>
      </trkpt>
      <trkpt lat="44.02716" lon="6.01389">
        <ele>669.7</ele>
        <time>2023-02-25T12:35:28Z</time>
      </trkpt>
      <trkpt lat="44.0271" lon="6.01401">
        <ele>668.9</ele>
        <time>2023-02-25T12:35:38Z</time>
      </trkpt>
      <trkpt lat="44.02705" lon="6.01414">
        <ele>668.9</ele>
        <time>2023-02-25T12:35:46Z</time>
      </trkpt>
      <trkpt lat="44.02696" lon="6.01424">
        <ele>667.9</ele>
        <time>2023-02-25T12:35:59Z</time>
      </trkpt>
      <trkpt lat="44.02684" lon="6.01418">
        <ele>665.8</ele>
        <time>2023-02-25T12:36:09Z</time>
      </trkpt>
      <trkpt lat="44.02671" lon="6.01413">
        <ele>665.2</ele>
        <time>2023-02-25T12:36:18Z</time>
      </trkpt>
      <trkpt lat="44.0266" lon="6.01408">
        <ele>663.5</ele>
        <time>2023-02-25T12:36:27Z</time>
      </trkpt>
      <trkpt lat="44.0265" lon="6.01407">
        <ele>663</ele>
        <time>2023-02-25T12:36:37Z</time>
      </trkpt>
      <trkpt lat="44.02638" lon="6.01406">
        <ele>663</ele>
        <time>2023-02-25T12:36:47Z</time>
      </trkpt>
      <trkpt lat="44.02628" lon="6.01402">
        <ele>661.4</ele>
        <time>2023-02-25T12:36:57Z</time>
      </trkpt>
      <trkpt lat="44.02617" lon="6.01398">
        <ele>660</ele>
        <time>2023-02-25T12:37:06Z</time>
      </trkpt>
      <trkpt lat="44.02608" lon="6.01396">
        <ele>659</ele>
        <time>2023-02-25T12:37:15Z</time>
      </trkpt>
      <trkpt lat="44.02597" lon="6.01395">
        <ele>659.1</ele>
        <time>2023-02-25T12:37:27Z</time>
      </trkpt>
      <trkpt lat="44.02587" lon="6.01388">
        <ele>656.8</ele>
        <time>2023-02-25T12:37:38Z</time>
      </trkpt>
      <trkpt lat="44.02582" lon="6.01372">
        <ele>655.3</ele>
        <time>2023-02-25T12:37:48Z</time>
      </trkpt>
      <trkpt lat="44.02587" lon="6.01358">
        <ele>654</ele>
        <time>2023-02-25T12:38:00Z</time>
      </trkpt>
      <trkpt lat="44.02585" lon="6.01356">
        <ele>654.3</ele>
        <time>2023-02-25T12:38:36Z</time>
      </trkpt>
      <trkpt lat="44.02585" lon="6.01356">
        <ele>654.3</ele>
        <time>2023-02-25T12:38:58Z</time>
      </trkpt>
      <trkpt lat="44.02586" lon="6.01355">
        <ele>654.2</ele>
        <time>2023-02-25T12:39:33Z</time>
      </trkpt>
      <trkpt lat="44.02589" lon="6.01353">
        <ele>654.2</ele>
        <time>2023-02-25T12:40:51Z</time>
      </trkpt>
      <trkpt lat="44.02599" lon="6.01349">
        <ele>652.9</ele>
        <time>2023-02-25T12:41:19Z</time>
      </trkpt>
      <trkpt lat="44.02605" lon="6.01343">
        <ele>652.1</ele>
        <time>2023-02-25T12:41:29Z</time>
      </trkpt>
      <trkpt lat="44.02614" lon="6.01336">
        <ele>650.8</ele>
        <time>2023-02-25T12:41:38Z</time>
      </trkpt>
      <trkpt lat="44.02624" lon="6.01328">
        <ele>651.2</ele>
        <time>2023-02-25T12:41:47Z</time>
      </trkpt>
      <trkpt lat="44.02632" lon="6.0132">
        <ele>651.2</ele>
        <time>2023-02-25T12:41:52.588Z</time>
      </trkpt>
      <trkpt lat="44.02636" lon="6.01318">
        <ele>650.8</ele>
        <time>2023-02-25T12:41:55Z</time>
      </trkpt>
      <trkpt lat="44.02642" lon="6.01314">
        <ele>650.1</ele>
        <time>2023-02-25T12:42:04Z</time>
      </trkpt>
      <trkpt lat="44.02649" lon="6.01306">
        <ele>649.2</ele>
        <time>2023-02-25T12:42:13Z</time>
      </trkpt>
      <trkpt lat="44.02655" lon="6.01299">
        <ele>648.8</ele>
        <time>2023-02-25T12:42:22Z</time>
      </trkpt>
      <trkpt lat="44.02662" lon="6.01288">
        <ele>647.2</ele>
        <time>2023-02-25T12:42:33Z</time>
      </trkpt>
      <trkpt lat="44.02671" lon="6.01277">
        <ele>644.7</ele>
        <time>2023-02-25T12:42:43Z</time>
      </trkpt>
      <trkpt lat="44.02677" lon="6.01266">
        <ele>644.7</ele>
        <time>2023-02-25T12:42:53Z</time>
      </trkpt>
      <trkpt lat="44.02685" lon="6.01253">
        <ele>643.6</ele>
        <time>2023-02-25T12:43:03Z</time>
      </trkpt>
      <trkpt lat="44.0269" lon="6.0124">
        <ele>642</ele>
        <time>2023-02-25T12:43:13Z</time>
      </trkpt>
      <trkpt lat="44.02695" lon="6.01228">
        <ele>639.4</ele>
        <time>2023-02-25T12:43:23Z</time>
      </trkpt>
      <trkpt lat="44.027" lon="6.01214">
        <ele>639.4</ele>
        <time>2023-02-25T12:43:33Z</time>
      </trkpt>
      <trkpt lat="44.02705" lon="6.01201">
        <ele>639.5</ele>
        <time>2023-02-25T12:43:43Z</time>
      </trkpt>
      <trkpt lat="44.02711" lon="6.01188">
        <ele>638.6</ele>
        <time>2023-02-25T12:43:53Z</time>
      </trkpt>
      <trkpt lat="44.02716" lon="6.01173">
        <ele>636.8</ele>
        <time>2023-02-25T12:44:03Z</time>
      </trkpt>
      <trkpt lat="44.02722" lon="6.0116">
        <ele>634</ele>
        <time>2023-02-25T12:44:13Z</time>
      </trkpt>
      <trkpt lat="44.02729" lon="6.01146">
        <ele>633.7</ele>
        <time>2023-02-25T12:44:24Z</time>
      </trkpt>
      <trkpt lat="44.02736" lon="6.01132">
        <ele>632.7</ele>
        <time>2023-02-25T12:44:34Z</time>
      </trkpt>
      <trkpt lat="44.02744" lon="6.0112">
        <ele>631.4</ele>
        <time>2023-02-25T12:44:44Z</time>
      </trkpt>
      <trkpt lat="44.02751" lon="6.01108">
        <ele>630.2</ele>
        <time>2023-02-25T12:44:54Z</time>
      </trkpt>
      <trkpt lat="44.02757" lon="6.01096">
        <ele>630.6</ele>
        <time>2023-02-25T12:45:03Z</time>
      </trkpt>
      <trkpt lat="44.02762" lon="6.01083">
        <ele>630.1</ele>
        <time>2023-02-25T12:45:12Z</time>
      </trkpt>
      <trkpt lat="44.02771" lon="6.01073">
        <ele>628.2</ele>
        <time>2023-02-25T12:45:22Z</time>
      </trkpt>
      <trkpt lat="44.02778" lon="6.01061">
        <ele>625.1</ele>
        <time>2023-02-25T12:45:32Z</time>
      </trkpt>
      <trkpt lat="44.02783" lon="6.01045">
        <ele>625.2</ele>
        <time>2023-02-25T12:45:43Z</time>
      </trkpt>
      <trkpt lat="44.02787" lon="6.01032">
        <ele>625.2</ele>
        <time>2023-02-25T12:45:53Z</time>
      </trkpt>
      <trkpt lat="44.02789" lon="6.01015">
        <ele>624.1</ele>
        <time>2023-02-25T12:46:05Z</time>
      </trkpt>
      <trkpt lat="44.02789" lon="6.00992">
        <ele>622</ele>
        <time>2023-02-25T12:46:17Z</time>
      </trkpt>
      <trkpt lat="44.02793" lon="6.00975">
        <ele>620.3</ele>
        <time>2023-02-25T12:46:27Z</time>
      </trkpt>
      <trkpt lat="44.02797" lon="6.00959">
        <ele>618.7</ele>
        <time>2023-02-25T12:46:38Z</time>
      </trkpt>
      <trkpt lat="44.02803" lon="6.00943">
        <ele>617</ele>
        <time>2023-02-25T12:46:47Z</time>
      </trkpt>
      <trkpt lat="44.02807" lon="6.00928">
        <ele>616</ele>
        <time>2023-02-25T12:46:57Z</time>
      </trkpt>
      <trkpt lat="44.02813" lon="6.00914">
        <ele>615.8</ele>
        <time>2023-02-25T12:47:07Z</time>
      </trkpt>
      <trkpt lat="44.0282" lon="6.00898">
        <ele>614.6</ele>
        <time>2023-02-25T12:47:18Z</time>
      </trkpt>
      <trkpt lat="44.02826" lon="6.00883">
        <ele>613.2</ele>
        <time>2023-02-25T12:47:29Z</time>
      </trkpt>
      <trkpt lat="44.02834" lon="6.0087">
        <ele>612.1</ele>
        <time>2023-02-25T12:47:39Z</time>
      </trkpt>
      <trkpt lat="44.02839" lon="6.00855">
        <ele>611.2</ele>
        <time>2023-02-25T12:47:50Z</time>
      </trkpt>
      <trkpt lat="44.02839" lon="6.00836">
        <ele>609.1</ele>
        <time>2023-02-25T12:48:01Z</time>
      </trkpt>
      <trkpt lat="44.02837" lon="6.00821">
        <ele>608.1</ele>
        <time>2023-02-25T12:48:16Z</time>
      </trkpt>
      <trkpt lat="44.02836" lon="6.00806">
        <ele>607.4</ele>
        <time>2023-02-25T12:48:25Z</time>
      </trkpt>
      <trkpt lat="44.02835" lon="6.00792">
        <ele>605.8</ele>
        <time>2023-02-25T12:48:35Z</time>
      </trkpt>
      <trkpt lat="44.02837" lon="6.00778">
        <ele>604.4</ele>
        <time>2023-02-25T12:48:45Z</time>
      </trkpt>
      <trkpt lat="44.02836" lon="6.00761">
        <ele>603.6</ele>
        <time>2023-02-25T12:48:55Z</time>
      </trkpt>
      <trkpt lat="44.02839" lon="6.00745">
        <ele>603</ele>
        <time>2023-02-25T12:49:06Z</time>
      </trkpt>
      <trkpt lat="44.02842" lon="6.0073">
        <ele>602.2</ele>
        <time>2023-02-25T12:49:16Z</time>
      </trkpt>
      <trkpt lat="44.02848" lon="6.00711">
        <ele>600.6</ele>
        <time>2023-02-25T12:49:27Z</time>
      </trkpt>
      <trkpt lat="44.02857" lon="6.00699">
        <ele>598.8</ele>
        <time>2023-02-25T12:49:37Z</time>
      </trkpt>
      <trkpt lat="44.02865" lon="6.00697">
        <ele>598.8</ele>
        <time>2023-02-25T12:50:00Z</time>
      </trkpt>
      <trkpt lat="44.02869" lon="6.00689">
        <ele>598.8</ele>
        <time>2023-02-25T12:50:27Z</time>
      </trkpt>
      <trkpt lat="44.02871" lon="6.00675">
        <ele>598.3</ele>
        <time>2023-02-25T12:50:39Z</time>
      </trkpt>
      <trkpt lat="44.02872" lon="6.00662">
        <ele>597.4</ele>
        <time>2023-02-25T12:50:49Z</time>
      </trkpt>
      <trkpt lat="44.02874" lon="6.00646">
        <ele>596.1</ele>
        <time>2023-02-25T12:51:01Z</time>
      </trkpt>
      <trkpt lat="44.02877" lon="6.00632">
        <ele>594.9</ele>
        <time>2023-02-25T12:51:11Z</time>
      </trkpt>
      <trkpt lat="44.02882" lon="6.00619">
        <ele>593.4</ele>
        <time>2023-02-25T12:51:21Z</time>
      </trkpt>
      <trkpt lat="44.02887" lon="6.00605">
        <ele>591.9</ele>
        <time>2023-02-25T12:51:31Z</time>
      </trkpt>
      <trkpt lat="44.02892" lon="6.00591">
        <ele>591.6</ele>
        <time>2023-02-25T12:51:42Z</time>
      </trkpt>
      <trkpt lat="44.02896" lon="6.00576">
        <ele>591</ele>
        <time>2023-02-25T12:51:52Z</time>
      </trkpt>
      <trkpt lat="44.02899" lon="6.00562">
        <ele>590.2</ele>
        <time>2023-02-25T12:52:02Z</time>
      </trkpt>
      <trkpt lat="44.02903" lon="6.00548">
        <ele>589.6</ele>
        <time>2023-02-25T12:52:15Z</time>
      </trkpt>
      <trkpt lat="44.02905" lon="6.0053">
        <ele>588.6</ele>
        <time>2023-02-25T12:52:29Z</time>
      </trkpt>
      <trkpt lat="44.02905" lon="6.00514">
        <ele>586.8</ele>
        <time>2023-02-25T12:52:43Z</time>
      </trkpt>
      <trkpt lat="44.02909" lon="6.00499">
        <ele>584.8</ele>
        <time>2023-02-25T12:52:53Z</time>
      </trkpt>
      <trkpt lat="44.0291" lon="6.00495">
        <ele>584.4</ele>
        <time>2023-02-25T12:55:07Z</time>
      </trkpt>
      <trkpt lat="44.02912" lon="6.0049">
        <ele>583.8</ele>
        <time>2023-02-25T12:55:58Z</time>
      </trkpt>
      <trkpt lat="44.02912" lon="6.00483">
        <ele>583.2</ele>
        <time>2023-02-25T12:58:44Z</time>
      </trkpt>
      <trkpt lat="44.02912" lon="6.00474">
        <ele>582.6</ele>
        <time>2023-02-25T12:59:40Z</time>
      </trkpt>
      <trkpt lat="44.02914" lon="6.0046">
        <ele>581.4</ele>
        <time>2023-02-25T12:59:51Z</time>
      </trkpt>
      <trkpt lat="44.02912" lon="6.00445">
        <ele>580.8</ele>
        <time>2023-02-25T13:00:01Z</time>
      </trkpt>
      <trkpt lat="44.0291" lon="6.00431">
        <ele>580.7</ele>
        <time>2023-02-25T13:00:22Z</time>
      </trkpt>
      <trkpt lat="44.02909" lon="6.00415">
        <ele>580.4</ele>
        <time>2023-02-25T13:00:33Z</time>
      </trkpt>
      <trkpt lat="44.02906" lon="6.00399">
        <ele>579.7</ele>
        <time>2023-02-25T13:00:46Z</time>
      </trkpt>
      <trkpt lat="44.02908" lon="6.00382">
        <ele>578.4</ele>
        <time>2023-02-25T13:01:02Z</time>
      </trkpt>
      <trkpt lat="44.02906" lon="6.00366">
        <ele>578.4</ele>
        <time>2023-02-25T13:01:11Z</time>
      </trkpt>
      <trkpt lat="44.02902" lon="6.00353">
        <ele>578.9</ele>
        <time>2023-02-25T13:01:20Z</time>
      </trkpt>
      <trkpt lat="44.02901" lon="6.00338">
        <ele>578.7</ele>
        <time>2023-02-25T13:01:31Z</time>
      </trkpt>
      <trkpt lat="44.02902" lon="6.00321">
        <ele>577.6</ele>
        <time>2023-02-25T13:01:41Z</time>
      </trkpt>
      <trkpt lat="44.02909" lon="6.00307">
        <ele>574.7</ele>
        <time>2023-02-25T13:01:51Z</time>
      </trkpt>
      <trkpt lat="44.02912" lon="6.00293">
        <ele>573.1</ele>
        <time>2023-02-25T13:02:00Z</time>
      </trkpt>
      <trkpt lat="44.02916" lon="6.00277">
        <ele>571.2</ele>
        <time>2023-02-25T13:02:11Z</time>
      </trkpt>
      <trkpt lat="44.02918" lon="6.0026">
        <ele>569.8</ele>
        <time>2023-02-25T13:02:22Z</time>
      </trkpt>
      <trkpt lat="44.02919" lon="6.00243">
        <ele>568.7</ele>
        <time>2023-02-25T13:02:33Z</time>
      </trkpt>
      <trkpt lat="44.0292" lon="6.00226">
        <ele>568.1</ele>
        <time>2023-02-25T13:02:45Z</time>
      </trkpt>
      <trkpt lat="44.02921" lon="6.00204">
        <ele>567.2</ele>
        <time>2023-02-25T13:02:56Z</time>
      </trkpt>
      <trkpt lat="44.02923" lon="6.00188">
        <ele>566.7</ele>
        <time>2023-02-25T13:03:07Z</time>
      </trkpt>
      <trkpt lat="44.02927" lon="6.00175">
        <ele>566.4</ele>
        <time>2023-02-25T13:03:18Z</time>
      </trkpt>
      <trkpt lat="44.02927" lon="6.00155">
        <ele>565.8</ele>
        <time>2023-02-25T13:03:30Z</time>
      </trkpt>
      <trkpt lat="44.0293" lon="6.00139">
        <ele>564.6</ele>
        <time>2023-02-25T13:03:41Z</time>
      </trkpt>
      <trkpt lat="44.02931" lon="6.00119">
        <ele>564.1</ele>
        <time>2023-02-25T13:03:54Z</time>
      </trkpt>
      <trkpt lat="44.0293" lon="6.00103">
        <ele>563.9</ele>
        <time>2023-02-25T13:04:05Z</time>
      </trkpt>
      <trkpt lat="44.02929" lon="6.00086">
        <ele>563.4</ele>
        <time>2023-02-25T13:04:18Z</time>
      </trkpt>
      <trkpt lat="44.02932" lon="6.0007">
        <ele>562</ele>
        <time>2023-02-25T13:04:31Z</time>
      </trkpt>
      <trkpt lat="44.02937" lon="6.0005">
        <ele>559.8</ele>
        <time>2023-02-25T13:04:45Z</time>
      </trkpt>
      <trkpt lat="44.02941" lon="6.00028">
        <ele>557.8</ele>
        <time>2023-02-25T13:04:59Z</time>
      </trkpt>
      <trkpt lat="44.02945" lon="6.00012">
        <ele>555.4</ele>
        <time>2023-02-25T13:05:12Z</time>
      </trkpt>
      <trkpt lat="44.02948" lon="5.99994">
        <ele>554.2</ele>
        <time>2023-02-25T13:05:24Z</time>
      </trkpt>
      <trkpt lat="44.02945" lon="5.99976">
        <ele>552.5</ele>
        <time>2023-02-25T13:05:34Z</time>
      </trkpt>
      <trkpt lat="44.02942" lon="5.9996">
        <ele>552.2</ele>
        <time>2023-02-25T13:05:44Z</time>
      </trkpt>
      <trkpt lat="44.0294" lon="5.99944">
        <ele>552.5</ele>
        <time>2023-02-25T13:05:54Z</time>
      </trkpt>
      <trkpt lat="44.02938" lon="5.99927">
        <ele>551.9</ele>
        <time>2023-02-25T13:06:04Z</time>
      </trkpt>
      <trkpt lat="44.0294" lon="5.99911">
        <ele>550.2</ele>
        <time>2023-02-25T13:06:15Z</time>
      </trkpt>
      <trkpt lat="44.02944" lon="5.99896">
        <ele>548.4</ele>
        <time>2023-02-25T13:06:25Z</time>
      </trkpt>
      <trkpt lat="44.02946" lon="5.99879">
        <ele>547.4</ele>
        <time>2023-02-25T13:06:35Z</time>
      </trkpt>
      <trkpt lat="44.02946" lon="5.99863">
        <ele>546.4</ele>
        <time>2023-02-25T13:06:45Z</time>
      </trkpt>
      <trkpt lat="44.02942" lon="5.99847">
        <ele>545.4</ele>
        <time>2023-02-25T13:06:55Z</time>
      </trkpt>
      <trkpt lat="44.02936" lon="5.99832">
        <ele>545.2</ele>
        <time>2023-02-25T13:07:05Z</time>
      </trkpt>
      <trkpt lat="44.02931" lon="5.99818">
        <ele>544.9</ele>
        <time>2023-02-25T13:07:15Z</time>
      </trkpt>
      <trkpt lat="44.02929" lon="5.99803">
        <ele>543.9</ele>
        <time>2023-02-25T13:07:25Z</time>
      </trkpt>
      <trkpt lat="44.02926" lon="5.99791">
        <ele>542.9</ele>
        <time>2023-02-25T13:07:35Z</time>
      </trkpt>
      <trkpt lat="44.02925" lon="5.99773">
        <ele>541.5</ele>
        <time>2023-02-25T13:07:45Z</time>
      </trkpt>
      <trkpt lat="44.02922" lon="5.99762">
        <ele>540.7</ele>
        <time>2023-02-25T13:07:56Z</time>
      </trkpt>
      <trkpt lat="44.02921" lon="5.9974">
        <ele>539.5</ele>
        <time>2023-02-25T13:08:12Z</time>
      </trkpt>
      <trkpt lat="44.02928" lon="5.99715">
        <ele>539</ele>
        <time>2023-02-25T13:08:28Z</time>
      </trkpt>
      <trkpt lat="44.02929" lon="5.99695">
        <ele>538</ele>
        <time>2023-02-25T13:08:41Z</time>
      </trkpt>
      <trkpt lat="44.02926" lon="5.99674">
        <ele>536.6</ele>
        <time>2023-02-25T13:08:54Z</time>
      </trkpt>
      <trkpt lat="44.02921" lon="5.99658">
        <ele>534.7</ele>
        <time>2023-02-25T13:09:05Z</time>
      </trkpt>
      <trkpt lat="44.02917" lon="5.99645">
        <ele>532.8</ele>
        <time>2023-02-25T13:09:17Z</time>
      </trkpt>
      <trkpt lat="44.02914" lon="5.99616">
        <ele>531.5</ele>
        <time>2023-02-25T13:09:30Z</time>
      </trkpt>
      <trkpt lat="44.02919" lon="5.99597">
        <ele>530.8</ele>
        <time>2023-02-25T13:09:43Z</time>
      </trkpt>
      <trkpt lat="44.02922" lon="5.99584">
        <ele>531</ele>
        <time>2023-02-25T13:09:53Z</time>
      </trkpt>
      <trkpt lat="44.02921" lon="5.99566">
        <ele>529.9</ele>
        <time>2023-02-25T13:10:03Z</time>
      </trkpt>
      <trkpt lat="44.02915" lon="5.99552">
        <ele>528</ele>
        <time>2023-02-25T13:10:13Z</time>
      </trkpt>
      <trkpt lat="44.02909" lon="5.99537">
        <ele>527.9</ele>
        <time>2023-02-25T13:10:22Z</time>
      </trkpt>
      <trkpt lat="44.02905" lon="5.99524">
        <ele>527.3</ele>
        <time>2023-02-25T13:10:31Z</time>
      </trkpt>
      <trkpt lat="44.02899" lon="5.99511">
        <ele>526.3</ele>
        <time>2023-02-25T13:10:41Z</time>
      </trkpt>
      <trkpt lat="44.02892" lon="5.99497">
        <ele>525.7</ele>
        <time>2023-02-25T13:10:51Z</time>
      </trkpt>
      <trkpt lat="44.02889" lon="5.99481">
        <ele>524.7</ele>
        <time>2023-02-25T13:11:01Z</time>
      </trkpt>
      <trkpt lat="44.02889" lon="5.99464">
        <ele>523.7</ele>
        <time>2023-02-25T13:11:11Z</time>
      </trkpt>
      <trkpt lat="44.02891" lon="5.99447">
        <ele>523</ele>
        <time>2023-02-25T13:11:20Z</time>
      </trkpt>
      <trkpt lat="44.02892" lon="5.99433">
        <ele>521.7</ele>
        <time>2023-02-25T13:11:29Z</time>
      </trkpt>
      <trkpt lat="44.02894" lon="5.99419">
        <ele>520.4</ele>
        <time>2023-02-25T13:11:38Z</time>
      </trkpt>
      <trkpt lat="44.02897" lon="5.99404">
        <ele>519.8</ele>
        <time>2023-02-25T13:11:48Z</time>
      </trkpt>
      <trkpt lat="44.02903" lon="5.99389">
        <ele>519.5</ele>
        <time>2023-02-25T13:11:58Z</time>
      </trkpt>
      <trkpt lat="44.0291" lon="5.99378">
        <ele>518.7</ele>
        <time>2023-02-25T13:12:08Z</time>
      </trkpt>
      <trkpt lat="44.02916" lon="5.99365">
        <ele>517.5</ele>
        <time>2023-02-25T13:12:18Z</time>
      </trkpt>
      <trkpt lat="44.02916" lon="5.99349">
        <ele>516.2</ele>
        <time>2023-02-25T13:12:28Z</time>
      </trkpt>
      <trkpt lat="44.02915" lon="5.99333">
        <ele>515.1</ele>
        <time>2023-02-25T13:12:39Z</time>
      </trkpt>
      <trkpt lat="44.02918" lon="5.99317">
        <ele>514.7</ele>
        <time>2023-02-25T13:12:50Z</time>
      </trkpt>
      <trkpt lat="44.02922" lon="5.99302">
        <ele>514.7</ele>
        <time>2023-02-25T13:13:00Z</time>
      </trkpt>
      <trkpt lat="44.02927" lon="5.99289">
        <ele>514.9</ele>
        <time>2023-02-25T13:13:09Z</time>
      </trkpt>
      <trkpt lat="44.02931" lon="5.99274">
        <ele>514.4</ele>
        <time>2023-02-25T13:13:19Z</time>
      </trkpt>
      <trkpt lat="44.02932" lon="5.9926">
        <ele>513.6</ele>
        <time>2023-02-25T13:13:29Z</time>
      </trkpt>
      <trkpt lat="44.02928" lon="5.99246">
        <ele>512.5</ele>
        <time>2023-02-25T13:13:39Z</time>
      </trkpt>
      <trkpt lat="44.02926" lon="5.9923">
        <ele>511.2</ele>
        <time>2023-02-25T13:13:49Z</time>
      </trkpt>
      <trkpt lat="44.02927" lon="5.99232">
        <ele>511.4</ele>
        <time>2023-02-25T13:13:50.317Z</time>
      </trkpt>
      <trkpt lat="44.02926" lon="5.99216">
        <ele>510</ele>
        <time>2023-02-25T13:13:59Z</time>
      </trkpt>
      <trkpt lat="44.02923" lon="5.992">
        <ele>508.2</ele>
        <time>2023-02-25T13:14:09Z</time>
      </trkpt>
      <trkpt lat="44.0292" lon="5.99187">
        <ele>506.9</ele>
        <time>2023-02-25T13:14:20Z</time>
      </trkpt>
      <trkpt lat="44.02917" lon="5.9917">
        <ele>505.4</ele>
        <time>2023-02-25T13:14:30Z</time>
      </trkpt>
      <trkpt lat="44.02913" lon="5.99148">
        <ele>504.1</ele>
        <time>2023-02-25T13:14:40Z</time>
      </trkpt>
      <trkpt lat="44.0291" lon="5.9913">
        <ele>503.5</ele>
        <time>2023-02-25T13:14:52Z</time>
      </trkpt>
      <trkpt lat="44.02908" lon="5.99114">
        <ele>503.1</ele>
        <time>2023-02-25T13:15:02Z</time>
      </trkpt>
      <trkpt lat="44.02904" lon="5.991">
        <ele>502.4</ele>
        <time>2023-02-25T13:15:11Z</time>
      </trkpt>
      <trkpt lat="44.02902" lon="5.99085">
        <ele>501.6</ele>
        <time>2023-02-25T13:15:20Z</time>
      </trkpt>
      <trkpt lat="44.02899" lon="5.99071">
        <ele>500</ele>
        <time>2023-02-25T13:15:30Z</time>
      </trkpt>
      <trkpt lat="44.02898" lon="5.99055">
        <ele>498.3</ele>
        <time>2023-02-25T13:15:39Z</time>
      </trkpt>
      <trkpt lat="44.02895" lon="5.99038">
        <ele>497.6</ele>
        <time>2023-02-25T13:15:51Z</time>
      </trkpt>
      <trkpt lat="44.02892" lon="5.99024">
        <ele>496.9</ele>
        <time>2023-02-25T13:16:02Z</time>
      </trkpt>
      <trkpt lat="44.0289" lon="5.99016">
        <ele>496.2</ele>
        <time>2023-02-25T13:16:20Z</time>
      </trkpt>
      <trkpt lat="44.0289" lon="5.99009">
        <ele>495.7</ele>
        <time>2023-02-25T13:17:29.285Z</time>
      </trkpt>
      <trkpt lat="44.02891" lon="5.99003">
        <ele>495.3</ele>
        <time>2023-02-25T13:18:30.248Z</time>
      </trkpt>
      <trkpt lat="44.02888" lon="5.98991">
        <ele>494.8</ele>
        <time>2023-02-25T13:20:36Z</time>
      </trkpt>
      <trkpt lat="44.02887" lon="5.98978">
        <ele>494.4</ele>
        <time>2023-02-25T13:20:46Z</time>
      </trkpt>
      <trkpt lat="44.02883" lon="5.98964">
        <ele>493.7</ele>
        <time>2023-02-25T13:20:56Z</time>
      </trkpt>
      <trkpt lat="44.02883" lon="5.98948">
        <ele>492.8</ele>
        <time>2023-02-25T13:21:08Z</time>
      </trkpt>
      <trkpt lat="44.02882" lon="5.98932">
        <ele>492.1</ele>
        <time>2023-02-25T13:21:19Z</time>
      </trkpt>
      <trkpt lat="44.02882" lon="5.9891">
        <ele>490.6</ele>
        <time>2023-02-25T13:21:30Z</time>
      </trkpt>
      <trkpt lat="44.02885" lon="5.98897">
        <ele>489.3</ele>
        <time>2023-02-25T13:21:42Z</time>
      </trkpt>
      <trkpt lat="44.02888" lon="5.9888">
        <ele>487.9</ele>
        <time>2023-02-25T13:21:53Z</time>
      </trkpt>
      <trkpt lat="44.02889" lon="5.98863">
        <ele>487.1</ele>
        <time>2023-02-25T13:22:04Z</time>
      </trkpt>
      <trkpt lat="44.02889" lon="5.98849">
        <ele>486.2</ele>
        <time>2023-02-25T13:22:15Z</time>
      </trkpt>
      <trkpt lat="44.02891" lon="5.98832">
        <ele>485.4</ele>
        <time>2023-02-25T13:22:25Z</time>
      </trkpt>
      <trkpt lat="44.02892" lon="5.98813">
        <ele>484.9</ele>
        <time>2023-02-25T13:22:35Z</time>
      </trkpt>
      <trkpt lat="44.02891" lon="5.98796">
        <ele>484.1</ele>
        <time>2023-02-25T13:22:44Z</time>
      </trkpt>
      <trkpt lat="44.02894" lon="5.98783">
        <ele>484.2</ele>
        <time>2023-02-25T13:22:53Z</time>
      </trkpt>
      <trkpt lat="44.02895" lon="5.98764">
        <ele>483.4</ele>
        <time>2023-02-25T13:23:03Z</time>
      </trkpt>
      <trkpt lat="44.02898" lon="5.9875">
        <ele>483</ele>
        <time>2023-02-25T13:23:14Z</time>
      </trkpt>
      <trkpt lat="44.02899" lon="5.98734">
        <ele>482.1</ele>
        <time>2023-02-25T13:23:26Z</time>
      </trkpt>
      <trkpt lat="44.02899" lon="5.98716">
        <ele>480.9</ele>
        <time>2023-02-25T13:23:36Z</time>
      </trkpt>
      <trkpt lat="44.02899" lon="5.98692">
        <ele>479.8</ele>
        <time>2023-02-25T13:23:48Z</time>
      </trkpt>
      <trkpt lat="44.02898" lon="5.98677">
        <ele>478.7</ele>
        <time>2023-02-25T13:23:58Z</time>
      </trkpt>
      <trkpt lat="44.02895" lon="5.98662">
        <ele>477.5</ele>
        <time>2023-02-25T13:24:11Z</time>
      </trkpt>
      <trkpt lat="44.02906" lon="5.98646">
        <ele>477.1</ele>
        <time>2023-02-25T13:24:21Z</time>
      </trkpt>
      <trkpt lat="44.02906" lon="5.98629">
        <ele>475.6</ele>
        <time>2023-02-25T13:24:31Z</time>
      </trkpt>
      <trkpt lat="44.02906" lon="5.98614">
        <ele>474.8</ele>
        <time>2023-02-25T13:24:40Z</time>
      </trkpt>
      <trkpt lat="44.02905" lon="5.98602">
        <ele>474.1</ele>
        <time>2023-02-25T13:24:49Z</time>
      </trkpt>
      <trkpt lat="44.02907" lon="5.98588">
        <ele>473.3</ele>
        <time>2023-02-25T13:24:59Z</time>
      </trkpt>
      <trkpt lat="44.02912" lon="5.98575">
        <ele>472.4</ele>
        <time>2023-02-25T13:25:08Z</time>
      </trkpt>
      <trkpt lat="44.02915" lon="5.98562">
        <ele>471.5</ele>
        <time>2023-02-25T13:25:18Z</time>
      </trkpt>
      <trkpt lat="44.02914" lon="5.98545">
        <ele>470.8</ele>
        <time>2023-02-25T13:25:29Z</time>
      </trkpt>
      <trkpt lat="44.02917" lon="5.98531">
        <ele>470.1</ele>
        <time>2023-02-25T13:25:43Z</time>
      </trkpt>
      <trkpt lat="44.02917" lon="5.9851">
        <ele>468.9</ele>
        <time>2023-02-25T13:25:56Z</time>
      </trkpt>
      <trkpt lat="44.02914" lon="5.98491">
        <ele>467.9</ele>
        <time>2023-02-25T13:26:08Z</time>
      </trkpt>
      <trkpt lat="44.02915" lon="5.98474">
        <ele>467.2</ele>
        <time>2023-02-25T13:26:19Z</time>
      </trkpt>
      <trkpt lat="44.02917" lon="5.98459">
        <ele>466.5</ele>
        <time>2023-02-25T13:26:29Z</time>
      </trkpt>
      <trkpt lat="44.02916" lon="5.98444">
        <ele>466</ele>
        <time>2023-02-25T13:26:39Z</time>
      </trkpt>
      <trkpt lat="44.02917" lon="5.98429">
        <ele>464.9</ele>
        <time>2023-02-25T13:26:48Z</time>
      </trkpt>
      <trkpt lat="44.0292" lon="5.98415">
        <ele>464.9</ele>
        <time>2023-02-25T13:26:58Z</time>
      </trkpt>
      <trkpt lat="44.02924" lon="5.984">
        <ele>465.2</ele>
        <time>2023-02-25T13:27:08Z</time>
      </trkpt>
      <trkpt lat="44.02928" lon="5.98388">
        <ele>465.9</ele>
        <time>2023-02-25T13:27:18Z</time>
      </trkpt>
      <trkpt lat="44.02931" lon="5.98374">
        <ele>466</ele>
        <time>2023-02-25T13:27:27Z</time>
      </trkpt>
      <trkpt lat="44.02934" lon="5.98354">
        <ele>466.1</ele>
        <time>2023-02-25T13:27:37Z</time>
      </trkpt>
      <trkpt lat="44.02942" lon="5.98343">
        <ele>467.6</ele>
        <time>2023-02-25T13:27:47Z</time>
      </trkpt>
      <trkpt lat="44.02945" lon="5.98336">
        <ele>468.1</ele>
        <time>2023-02-25T13:28:06Z</time>
      </trkpt>
      <trkpt lat="44.02939" lon="5.98335">
        <ele>466.7</ele>
        <time>2023-02-25T13:28:24Z</time>
      </trkpt>
      <trkpt lat="44.02932" lon="5.98341">
        <ele>465.1</ele>
        <time>2023-02-25T13:28:38Z</time>
      </trkpt>
      <trkpt lat="44.02932" lon="5.98342">
        <ele>465.2</ele>
        <time>2023-02-25T13:29:11Z</time>
      </trkpt>
      <trkpt lat="44.02926" lon="5.98342">
        <ele>463.6</ele>
        <time>2023-02-25T13:31:56Z</time>
      </trkpt>
      <trkpt lat="44.02913" lon="5.9834">
        <ele>461.2</ele>
        <time>2023-02-25T13:32:11Z</time>
      </trkpt>
      <trkpt lat="44.02904" lon="5.98343">
        <ele>461.2</ele>
        <time>2023-02-25T13:32:20Z</time>
      </trkpt>
      <trkpt lat="44.02903" lon="5.98334">
        <ele>461</ele>
        <time>2023-02-25T13:32:36Z</time>
      </trkpt>
      <trkpt lat="44.02898" lon="5.98319">
        <ele>460.5</ele>
        <time>2023-02-25T13:32:50Z</time>
      </trkpt>
      <trkpt lat="44.02897" lon="5.98307">
        <ele>460.1</ele>
        <time>2023-02-25T13:33:06Z</time>
      </trkpt>
      <trkpt lat="44.02899" lon="5.98289">
        <ele>458.8</ele>
        <time>2023-02-25T13:33:21Z</time>
      </trkpt>
      <trkpt lat="44.02923" lon="5.98311">
        <ele>462.1</ele>
        <time>2023-02-25T13:33:32Z</time>
      </trkpt>
      <trkpt lat="44.02933" lon="5.98319">
        <ele>464.9</ele>
        <time>2023-02-25T13:33:56Z</time>
      </trkpt>
      <trkpt lat="44.02934" lon="5.98311">
        <ele>465</ele>
        <time>2023-02-25T13:34:14Z</time>
      </trkpt>
      <trkpt lat="44.02924" lon="5.98298">
        <ele>461.9</ele>
        <time>2023-02-25T13:34:26Z</time>
      </trkpt>
      <trkpt lat="44.02916" lon="5.98288">
        <ele>458.7</ele>
        <time>2023-02-25T13:34:38Z</time>
      </trkpt>
      <trkpt lat="44.02913" lon="5.98275">
        <ele>457.8</ele>
        <time>2023-02-25T13:34:48Z</time>
      </trkpt>
      <trkpt lat="44.02925" lon="5.98265">
        <ele>461</ele>
      </trkpt>
      <trkpt lat="44.02927" lon="5.98258">
        <ele>461.7</ele>
        <time>2023-02-25T13:34:58Z</time>
      </trkpt>
      <trkpt lat="44.02925" lon="5.98252">
        <ele>460.6</ele>
        <time>2023-02-25T13:35:23Z</time>
      </trkpt>
      <trkpt lat="44.02923" lon="5.98253">
        <ele>459.4</ele>
        <time>2023-02-25T13:36:50Z</time>
      </trkpt>
      <trkpt lat="44.0292" lon="5.98254">
        <ele>457.8</ele>
        <time>2023-02-25T13:39:03Z</time>
      </trkpt>
      <trkpt lat="44.02912" lon="5.98253">
        <ele>455.9</ele>
        <time>2023-02-25T13:39:16Z</time>
      </trkpt>
      <trkpt lat="44.02907" lon="5.98253">
        <ele>455.6</ele>
        <time>2023-02-25T13:39:41Z</time>
      </trkpt>
      <trkpt lat="44.02901" lon="5.98252">
        <ele>455.1</ele>
        <time>2023-02-25T13:39:58Z</time>
      </trkpt>
      <trkpt lat="44.02893" lon="5.9825">
        <ele>454.3</ele>
        <time>2023-02-25T13:40:15Z</time>
      </trkpt>
      <trkpt lat="44.02893" lon="5.98244">
        <ele>454</ele>
        <time>2023-02-25T13:40:30Z</time>
      </trkpt>
      <trkpt lat="44.02896" lon="5.9824">
        <ele>454.2</ele>
      </trkpt>
      <trkpt lat="44.02929" lon="5.98242">
        <ele>463.5</ele>
        <time>2023-02-25T13:41:26Z</time>
      </trkpt>
      <trkpt lat="44.02929" lon="5.9824">
        <ele>463.8</ele>
        <time>2023-02-25T13:42:31Z</time>
      </trkpt>
      <trkpt lat="44.02931" lon="5.98231">
        <ele>465.6</ele>
        <time>2023-02-25T13:43:19Z</time>
      </trkpt>
      <trkpt lat="44.02924" lon="5.98223">
        <ele>462.6</ele>
        <time>2023-02-25T13:43:36Z</time>
      </trkpt>
      <trkpt lat="44.02918" lon="5.98219">
        <ele>459.3</ele>
        <time>2023-02-25T13:44:05Z</time>
      </trkpt>
      <trkpt lat="44.02919" lon="5.98219">
        <ele>459.6</ele>
        <time>2023-02-25T13:44:47Z</time>
      </trkpt>
      <trkpt lat="44.02919" lon="5.98212">
        <ele>460.5</ele>
        <time>2023-02-25T13:46:07Z</time>
      </trkpt>
      <trkpt lat="44.02918" lon="5.98196">
        <ele>461.6</ele>
        <time>2023-02-25T13:47:33Z</time>
      </trkpt>
      <trkpt lat="44.02916" lon="5.98185">
        <ele>462.1</ele>
        <time>2023-02-25T13:47:47Z</time>
      </trkpt>
      <trkpt lat="44.02912" lon="5.98172">
        <ele>462</ele>
        <time>2023-02-25T13:47:57Z</time>
      </trkpt>
      <trkpt lat="44.02911" lon="5.98156">
        <ele>463.9</ele>
        <time>2023-02-25T13:48:08Z</time>
      </trkpt>
      <trkpt lat="44.02906" lon="5.98143">
        <ele>463.2</ele>
        <time>2023-02-25T13:48:20Z</time>
      </trkpt>
      <trkpt lat="44.02904" lon="5.98138">
        <ele>462.7</ele>
        <time>2023-02-25T13:48:33Z</time>
      </trkpt>
      <trkpt lat="44.0291" lon="5.98147">
        <ele>465.2</ele>
        <time>2023-02-25T13:48:47Z</time>
      </trkpt>
      <trkpt lat="44.02917" lon="5.98154">
        <ele>467.6</ele>
        <time>2023-02-25T13:49:04Z</time>
      </trkpt>
      <trkpt lat="44.02917" lon="5.98147">
        <ele>469.5</ele>
        <time>2023-02-25T13:49:22Z</time>
      </trkpt>
      <trkpt lat="44.02915" lon="5.98144">
        <ele>468.8</ele>
        <time>2023-02-25T13:49:46Z</time>
      </trkpt>
      <trkpt lat="44.02914" lon="5.98127">
        <ele>470.5</ele>
        <time>2023-02-25T13:49:59Z</time>
      </trkpt>
      <trkpt lat="44.02918" lon="5.98118">
        <ele>474.4</ele>
        <time>2023-02-25T13:50:12Z</time>
      </trkpt>
      <trkpt lat="44.0292" lon="5.98126">
        <ele>474.7</ele>
        <time>2023-02-25T13:50:47Z</time>
      </trkpt>
      <trkpt lat="44.02926" lon="5.98139">
        <ele>477.8</ele>
        <time>2023-02-25T13:51:04Z</time>
      </trkpt>
      <trkpt lat="44.0293" lon="5.98151">
        <ele>478.8</ele>
        <time>2023-02-25T13:51:18Z</time>
      </trkpt>
      <trkpt lat="44.02934" lon="5.98164">
        <ele>479.3</ele>
        <time>2023-02-25T13:51:32Z</time>
      </trkpt>
      <trkpt lat="44.02942" lon="5.98176">
        <ele>483.6</ele>
        <time>2023-02-25T13:51:41Z</time>
      </trkpt>
      <trkpt lat="44.02945" lon="5.98188">
        <ele>484</ele>
        <time>2023-02-25T13:51:53Z</time>
      </trkpt>
      <trkpt lat="44.02948" lon="5.982">
        <ele>484</ele>
        <time>2023-02-25T13:52:05Z</time>
      </trkpt>
      <trkpt lat="44.02953" lon="5.9821">
        <ele>484.2</ele>
        <time>2023-02-25T13:52:18Z</time>
      </trkpt>
      <trkpt lat="44.0296" lon="5.98223">
        <ele>486.2</ele>
        <time>2023-02-25T13:52:31Z</time>
      </trkpt>
      <trkpt lat="44.02964" lon="5.98236">
        <ele>487.6</ele>
        <time>2023-02-25T13:52:43Z</time>
      </trkpt>
      <trkpt lat="44.02969" lon="5.9825">
        <ele>489.4</ele>
        <time>2023-02-25T13:52:56Z</time>
      </trkpt>
      <trkpt lat="44.02974" lon="5.98263">
        <ele>491.4</ele>
        <time>2023-02-25T13:53:09Z</time>
      </trkpt>
      <trkpt lat="44.02977" lon="5.98277">
        <ele>491.7</ele>
        <time>2023-02-25T13:53:21Z</time>
      </trkpt>
      <trkpt lat="44.02982" lon="5.98292">
        <ele>494.7</ele>
        <time>2023-02-25T13:53:32Z</time>
      </trkpt>
      <trkpt lat="44.02985" lon="5.98304">
        <ele>496</ele>
        <time>2023-02-25T13:53:45Z</time>
      </trkpt>
      <trkpt lat="44.02983" lon="5.98317">
        <ele>493.5</ele>
        <time>2023-02-25T13:53:57Z</time>
      </trkpt>
      <trkpt lat="44.02989" lon="5.9833">
        <ele>497</ele>
        <time>2023-02-25T13:54:10Z</time>
      </trkpt>
      <trkpt lat="44.02993" lon="5.98344">
        <ele>500.4</ele>
        <time>2023-02-25T13:54:31Z</time>
      </trkpt>
      <trkpt lat="44.02992" lon="5.98345">
        <ele>500.1</ele>
        <time>2023-02-25T13:55:08Z</time>
      </trkpt>
      <trkpt lat="44.0299" lon="5.98348">
        <ele>498.9</ele>
        <time>2023-02-25T13:56:24Z</time>
      </trkpt>
      <trkpt lat="44.0299" lon="5.98347">
        <ele>498.4</ele>
        <time>2023-02-25T13:57:04Z</time>
      </trkpt>
      <trkpt lat="44.02991" lon="5.9836">
        <ele>500.3</ele>
        <time>2023-02-25T13:57:16Z</time>
      </trkpt>
      <trkpt lat="44.02989" lon="5.98378">
        <ele>500.7</ele>
        <time>2023-02-25T13:57:28Z</time>
      </trkpt>
      <trkpt lat="44.02992" lon="5.98393">
        <ele>504.3</ele>
        <time>2023-02-25T13:57:43Z</time>
      </trkpt>
      <trkpt lat="44.02991" lon="5.98409">
        <ele>505.4</ele>
        <time>2023-02-25T13:57:56Z</time>
      </trkpt>
      <trkpt lat="44.02992" lon="5.98425">
        <ele>507.3</ele>
        <time>2023-02-25T13:58:07Z</time>
      </trkpt>
      <trkpt lat="44.02996" lon="5.98437">
        <ele>510.3</ele>
        <time>2023-02-25T13:58:18Z</time>
      </trkpt>
      <trkpt lat="44.02997" lon="5.98451">
        <ele>511.2</ele>
        <time>2023-02-25T13:58:31Z</time>
      </trkpt>
      <trkpt lat="44.03" lon="5.98464">
        <ele>513.9</ele>
        <time>2023-02-25T13:58:45Z</time>
      </trkpt>
      <trkpt lat="44.03" lon="5.98479">
        <ele>513.9</ele>
        <time>2023-02-25T13:58:57Z</time>
      </trkpt>
      <trkpt lat="44.03003" lon="5.98491">
        <ele>515.8</ele>
        <time>2023-02-25T13:59:10Z</time>
      </trkpt>
      <trkpt lat="44.03006" lon="5.98507">
        <ele>517.6</ele>
        <time>2023-02-25T13:59:22Z</time>
      </trkpt>
      <trkpt lat="44.03008" lon="5.98522">
        <ele>518.3</ele>
        <time>2023-02-25T13:59:33Z</time>
      </trkpt>
      <trkpt lat="44.0301" lon="5.98536">
        <ele>520.7</ele>
        <time>2023-02-25T13:59:44Z</time>
      </trkpt>
      <trkpt lat="44.03006" lon="5.98547">
        <ele>518.7</ele>
        <time>2023-02-25T13:59:55Z</time>
      </trkpt>
      <trkpt lat="44.03007" lon="5.98561">
        <ele>522.3</ele>
        <time>2023-02-25T14:00:08Z</time>
      </trkpt>
      <trkpt lat="44.03008" lon="5.98574">
        <ele>524.1</ele>
        <time>2023-02-25T14:00:21Z</time>
      </trkpt>
      <trkpt lat="44.03008" lon="5.98589">
        <ele>526.3</ele>
        <time>2023-02-25T14:00:32Z</time>
      </trkpt>
      <trkpt lat="44.03011" lon="5.98602">
        <ele>529.7</ele>
        <time>2023-02-25T14:00:45Z</time>
      </trkpt>
      <trkpt lat="44.03007" lon="5.98615">
        <ele>528.3</ele>
        <time>2023-02-25T14:00:57Z</time>
      </trkpt>
      <trkpt lat="44.03009" lon="5.98629">
        <ele>531.5</ele>
        <time>2023-02-25T14:01:10Z</time>
      </trkpt>
      <trkpt lat="44.03009" lon="5.98642">
        <ele>532.1</ele>
        <time>2023-02-25T14:01:23Z</time>
      </trkpt>
      <trkpt lat="44.0301" lon="5.98657">
        <ele>533.1</ele>
        <time>2023-02-25T14:01:37Z</time>
      </trkpt>
      <trkpt lat="44.03013" lon="5.98672">
        <ele>535.6</ele>
        <time>2023-02-25T14:01:50Z</time>
      </trkpt>
      <trkpt lat="44.03015" lon="5.98684">
        <ele>537.8</ele>
        <time>2023-02-25T14:02:03Z</time>
      </trkpt>
      <trkpt lat="44.03016" lon="5.98698">
        <ele>539.8</ele>
        <time>2023-02-25T14:02:17Z</time>
      </trkpt>
      <trkpt lat="44.03012" lon="5.98714">
        <ele>540.1</ele>
        <time>2023-02-25T14:02:33Z</time>
      </trkpt>
      <trkpt lat="44.03013" lon="5.98727">
        <ele>542.7</ele>
        <time>2023-02-25T14:02:51Z</time>
      </trkpt>
      <trkpt lat="44.0301" lon="5.9874">
        <ele>542</ele>
        <time>2023-02-25T14:03:05Z</time>
      </trkpt>
      <trkpt lat="44.03011" lon="5.98756">
        <ele>544.6</ele>
        <time>2023-02-25T14:03:15Z</time>
      </trkpt>
      <trkpt lat="44.0301" lon="5.98762">
        <ele>545.3</ele>
        <time>2023-02-25T14:03:42Z</time>
      </trkpt>
      <trkpt lat="44.03008" lon="5.98763">
        <ele>544.3</ele>
        <time>2023-02-25T14:07:04Z</time>
      </trkpt>
      <trkpt lat="44.03009" lon="5.98771">
        <ele>546.3</ele>
        <time>2023-02-25T14:07:59Z</time>
      </trkpt>
      <trkpt lat="44.03008" lon="5.98785">
        <ele>547.5</ele>
        <time>2023-02-25T14:08:16Z</time>
      </trkpt>
      <trkpt lat="44.03012" lon="5.98799">
        <ele>552.4</ele>
        <time>2023-02-25T14:08:31Z</time>
      </trkpt>
      <trkpt lat="44.03008" lon="5.98813">
        <ele>551.2</ele>
        <time>2023-02-25T14:08:44Z</time>
      </trkpt>
      <trkpt lat="44.03012" lon="5.98827">
        <ele>554.6</ele>
        <time>2023-02-25T14:08:56Z</time>
      </trkpt>
      <trkpt lat="44.03015" lon="5.9884">
        <ele>558.6</ele>
        <time>2023-02-25T14:09:08Z</time>
      </trkpt>
      <trkpt lat="44.03012" lon="5.98853">
        <ele>558.2</ele>
        <time>2023-02-25T14:09:21Z</time>
      </trkpt>
      <trkpt lat="44.03016" lon="5.98867">
        <ele>561.8</ele>
        <time>2023-02-25T14:09:37Z</time>
      </trkpt>
      <trkpt lat="44.0302" lon="5.9888">
        <ele>563.4</ele>
        <time>2023-02-25T14:09:50Z</time>
      </trkpt>
      <trkpt lat="44.03023" lon="5.98892">
        <ele>565.3</ele>
        <time>2023-02-25T14:10:04Z</time>
      </trkpt>
      <trkpt lat="44.03022" lon="5.98908">
        <ele>564.5</ele>
        <time>2023-02-25T14:10:18Z</time>
      </trkpt>
      <trkpt lat="44.03028" lon="5.98921">
        <ele>569</ele>
        <time>2023-02-25T14:10:31Z</time>
      </trkpt>
      <trkpt lat="44.03025" lon="5.98934">
        <ele>567.1</ele>
        <time>2023-02-25T14:10:45Z</time>
      </trkpt>
      <trkpt lat="44.03028" lon="5.98949">
        <ele>569.9</ele>
        <time>2023-02-25T14:11:01Z</time>
      </trkpt>
      <trkpt lat="44.03029" lon="5.98962">
        <ele>570.3</ele>
        <time>2023-02-25T14:11:13Z</time>
      </trkpt>
      <trkpt lat="44.03033" lon="5.98975">
        <ele>572.7</ele>
        <time>2023-02-25T14:11:25Z</time>
      </trkpt>
      <trkpt lat="44.0304" lon="5.98987">
        <ele>576.1</ele>
        <time>2023-02-25T14:11:40Z</time>
      </trkpt>
      <trkpt lat="44.03043" lon="5.99">
        <ele>576.5</ele>
        <time>2023-02-25T14:11:53Z</time>
      </trkpt>
      <trkpt lat="44.0305" lon="5.99013">
        <ele>578.9</ele>
        <time>2023-02-25T14:12:06Z</time>
      </trkpt>
      <trkpt lat="44.03055" lon="5.99026">
        <ele>579.3</ele>
        <time>2023-02-25T14:12:17Z</time>
      </trkpt>
      <trkpt lat="44.03061" lon="5.99035">
        <ele>580.7</ele>
        <time>2023-02-25T14:12:29Z</time>
      </trkpt>
      <trkpt lat="44.03067" lon="5.99047">
        <ele>581.6</ele>
        <time>2023-02-25T14:12:41Z</time>
      </trkpt>
      <trkpt lat="44.03075" lon="5.99056">
        <ele>584</ele>
        <time>2023-02-25T14:12:53Z</time>
      </trkpt>
      <trkpt lat="44.03083" lon="5.99066">
        <ele>585.4</ele>
        <time>2023-02-25T14:13:08Z</time>
      </trkpt>
      <trkpt lat="44.03093" lon="5.99078">
        <ele>586.2</ele>
        <time>2023-02-25T14:13:23Z</time>
      </trkpt>
      <trkpt lat="44.03106" lon="5.99084">
        <ele>589.4</ele>
        <time>2023-02-25T14:13:34Z</time>
      </trkpt>
      <trkpt lat="44.03117" lon="5.99088">
        <ele>591.4</ele>
        <time>2023-02-25T14:13:47Z</time>
      </trkpt>
      <trkpt lat="44.03127" lon="5.99092">
        <ele>592.5</ele>
        <time>2023-02-25T14:13:59Z</time>
      </trkpt>
      <trkpt lat="44.03139" lon="5.99095">
        <ele>594.7</ele>
        <time>2023-02-25T14:14:12Z</time>
      </trkpt>
      <trkpt lat="44.03144" lon="5.99097">
        <ele>593.2</ele>
        <time>2023-02-25T14:26:26Z</time>
      </trkpt>
      <trkpt lat="44.03146" lon="5.99095">
        <ele>592.9</ele>
        <time>2023-02-25T14:27:56Z</time>
      </trkpt>
      <trkpt lat="44.03143" lon="5.99082">
        <ele>593.8</ele>
        <time>2023-02-25T14:28:21Z</time>
      </trkpt>
      <trkpt lat="44.03137" lon="5.99068">
        <ele>591.4</ele>
        <time>2023-02-25T14:28:36Z</time>
      </trkpt>
      <trkpt lat="44.03131" lon="5.99055">
        <ele>590.6</ele>
        <time>2023-02-25T14:28:48Z</time>
      </trkpt>
      <trkpt lat="44.03126" lon="5.9904">
        <ele>589.6</ele>
        <time>2023-02-25T14:29:02Z</time>
      </trkpt>
      <trkpt lat="44.03122" lon="5.99024">
        <ele>588.6</ele>
        <time>2023-02-25T14:29:15Z</time>
      </trkpt>
      <trkpt lat="44.03119" lon="5.99008">
        <ele>585.5</ele>
        <time>2023-02-25T14:29:28Z</time>
      </trkpt>
      <trkpt lat="44.03112" lon="5.98991">
        <ele>585</ele>
        <time>2023-02-25T14:29:40Z</time>
      </trkpt>
      <trkpt lat="44.03108" lon="5.98974">
        <ele>583.2</ele>
        <time>2023-02-25T14:29:53Z</time>
      </trkpt>
      <trkpt lat="44.03109" lon="5.98956">
        <ele>579.2</ele>
        <time>2023-02-25T14:30:06Z</time>
      </trkpt>
      <trkpt lat="44.0311" lon="5.9894">
        <ele>576.2</ele>
        <time>2023-02-25T14:30:18Z</time>
      </trkpt>
      <trkpt lat="44.0311" lon="5.98924">
        <ele>575</ele>
        <time>2023-02-25T14:30:31Z</time>
      </trkpt>
      <trkpt lat="44.031" lon="5.98909">
        <ele>576.8</ele>
        <time>2023-02-25T14:30:43Z</time>
      </trkpt>
      <trkpt lat="44.03099" lon="5.98896">
        <ele>573.5</ele>
        <time>2023-02-25T14:31:00Z</time>
      </trkpt>
      <trkpt lat="44.03095" lon="5.98883">
        <ele>572.9</ele>
        <time>2023-02-25T14:31:17Z</time>
      </trkpt>
      <trkpt lat="44.03092" lon="5.98865">
        <ele>571.6</ele>
        <time>2023-02-25T14:31:29Z</time>
      </trkpt>
      <trkpt lat="44.03099" lon="5.98867">
        <ele>567.6</ele>
        <time>2023-02-25T14:31:42Z</time>
      </trkpt>
      <trkpt lat="44.03105" lon="5.98878">
        <ele>565.4</ele>
        <time>2023-02-25T14:31:52Z</time>
      </trkpt>
      <trkpt lat="44.03109" lon="5.9889">
        <ele>564.7</ele>
        <time>2023-02-25T14:32:02Z</time>
      </trkpt>
      <trkpt lat="44.03116" lon="5.98899">
        <ele>565.4</ele>
        <time>2023-02-25T14:32:12Z</time>
      </trkpt>
      <trkpt lat="44.03121" lon="5.98906">
        <ele>565.7</ele>
        <time>2023-02-25T14:32:34Z</time>
      </trkpt>
      <trkpt lat="44.0313" lon="5.98912">
        <ele>563.3</ele>
        <time>2023-02-25T14:32:45Z</time>
      </trkpt>
      <trkpt lat="44.03134" lon="5.98906">
        <ele>559.9</ele>
        <time>2023-02-25T14:33:01Z</time>
      </trkpt>
      <trkpt lat="44.03133" lon="5.98905">
        <ele>560.2</ele>
        <time>2023-02-25T14:33:49Z</time>
      </trkpt>
      <trkpt lat="44.03132" lon="5.98904">
        <ele>560.8</ele>
        <time>2023-02-25T14:34:31Z</time>
      </trkpt>
      <trkpt lat="44.03132" lon="5.98909">
        <ele>561.8</ele>
        <time>2023-02-25T14:35:35Z</time>
      </trkpt>
      <trkpt lat="44.03134" lon="5.9891">
        <ele>561</ele>
        <time>2023-02-25T14:36:10Z</time>
      </trkpt>
      <trkpt lat="44.03136" lon="5.98925">
        <ele>561.9</ele>
        <time>2023-02-25T14:36:31Z</time>
      </trkpt>
      <trkpt lat="44.03138" lon="5.98941">
        <ele>561.6</ele>
        <time>2023-02-25T14:36:45Z</time>
      </trkpt>
      <trkpt lat="44.03143" lon="5.98953">
        <ele>560.4</ele>
        <time>2023-02-25T14:37:02Z</time>
      </trkpt>
      <trkpt lat="44.03148" lon="5.98957">
        <ele>558.5</ele>
        <time>2023-02-25T14:37:31Z</time>
      </trkpt>
      <trkpt lat="44.03156" lon="5.98955">
        <ele>554.3</ele>
        <time>2023-02-25T14:37:49Z</time>
      </trkpt>
      <trkpt lat="44.03163" lon="5.98966">
        <ele>552.7</ele>
        <time>2023-02-25T14:38:02Z</time>
      </trkpt>
      <trkpt lat="44.03164" lon="5.98981">
        <ele>554.2</ele>
        <time>2023-02-25T14:38:24Z</time>
      </trkpt>
      <trkpt lat="44.03165" lon="5.98999">
        <ele>554.8</ele>
        <time>2023-02-25T14:38:39Z</time>
      </trkpt>
      <trkpt lat="44.03168" lon="5.99013">
        <ele>557</ele>
        <time>2023-02-25T14:38:54Z</time>
      </trkpt>
      <trkpt lat="44.03166" lon="5.99025">
        <ele>560.7</ele>
        <time>2023-02-25T14:39:11Z</time>
      </trkpt>
      <trkpt lat="44.03174" lon="5.99034">
        <ele>561.3</ele>
        <time>2023-02-25T14:39:24Z</time>
      </trkpt>
      <trkpt lat="44.03186" lon="5.99041">
        <ele>560</ele>
        <time>2023-02-25T14:39:39Z</time>
      </trkpt>
      <trkpt lat="44.03192" lon="5.99055">
        <ele>560.8</ele>
        <time>2023-02-25T14:39:51Z</time>
      </trkpt>
      <trkpt lat="44.03192" lon="5.99069">
        <ele>565.4</ele>
        <time>2023-02-25T14:40:05Z</time>
      </trkpt>
      <trkpt lat="44.03199" lon="5.99078">
        <ele>563.1</ele>
        <time>2023-02-25T14:40:20Z</time>
      </trkpt>
      <trkpt lat="44.03204" lon="5.99091">
        <ele>562.9</ele>
        <time>2023-02-25T14:40:31Z</time>
      </trkpt>
      <trkpt lat="44.03207" lon="5.99101">
        <ele>564.4</ele>
        <time>2023-02-25T14:40:58Z</time>
      </trkpt>
      <trkpt lat="44.03209" lon="5.99109">
        <ele>565</ele>
        <time>2023-02-25T14:41:23Z</time>
      </trkpt>
      <trkpt lat="44.03216" lon="5.99118">
        <ele>561.6</ele>
        <time>2023-02-25T14:41:41Z</time>
      </trkpt>
      <trkpt lat="44.03216" lon="5.99132">
        <ele>562.5</ele>
        <time>2023-02-25T14:41:55Z</time>
      </trkpt>
      <trkpt lat="44.03224" lon="5.99142">
        <ele>558.9</ele>
        <time>2023-02-25T14:42:10Z</time>
      </trkpt>
      <trkpt lat="44.0323" lon="5.99154">
        <ele>559.1</ele>
        <time>2023-02-25T14:42:25Z</time>
      </trkpt>
      <trkpt lat="44.03234" lon="5.99167">
        <ele>561.4</ele>
        <time>2023-02-25T14:42:40Z</time>
      </trkpt>
      <trkpt lat="44.03241" lon="5.99173">
        <ele>558.4</ele>
        <time>2023-02-25T14:43:06Z</time>
      </trkpt>
      <trkpt lat="44.03248" lon="5.99171">
        <ele>554.3</ele>
        <time>2023-02-25T14:43:29Z</time>
      </trkpt>
      <trkpt lat="44.03247" lon="5.99173">
        <ele>554.7</ele>
        <time>2023-02-25T14:44:53Z</time>
      </trkpt>
      <trkpt lat="44.03249" lon="5.99171">
        <ele>553.4</ele>
        <time>2023-02-25T14:45:35Z</time>
      </trkpt>
      <trkpt lat="44.03252" lon="5.99163">
        <ele>550.6</ele>
        <time>2023-02-25T14:47:12Z</time>
      </trkpt>
      <trkpt lat="44.03249" lon="5.99181">
        <ele>554.1</ele>
        <time>2023-02-25T14:47:29Z</time>
      </trkpt>
      <trkpt lat="44.03253" lon="5.99193">
        <ele>551.7</ele>
        <time>2023-02-25T14:47:44Z</time>
      </trkpt>
      <trkpt lat="44.03261" lon="5.99202">
        <ele>546.2</ele>
        <time>2023-02-25T14:48:06Z</time>
      </trkpt>
      <trkpt lat="44.03262" lon="5.99219">
        <ele>546.6</ele>
        <time>2023-02-25T14:48:18Z</time>
      </trkpt>
      <trkpt lat="44.03269" lon="5.99229">
        <ele>543.7</ele>
        <time>2023-02-25T14:48:41Z</time>
      </trkpt>
      <trkpt lat="44.0327" lon="5.99245">
        <ele>546.2</ele>
        <time>2023-02-25T14:49:00Z</time>
      </trkpt>
      <trkpt lat="44.03276" lon="5.99251">
        <ele>545</ele>
        <time>2023-02-25T14:49:13Z</time>
      </trkpt>
      <trkpt lat="44.03282" lon="5.99263">
        <ele>547.4</ele>
        <time>2023-02-25T14:49:28Z</time>
      </trkpt>
      <trkpt lat="44.03282" lon="5.99269">
        <ele>550.4</ele>
        <time>2023-02-25T14:50:05Z</time>
      </trkpt>
      <trkpt lat="44.03283" lon="5.99283">
        <ele>554</ele>
        <time>2023-02-25T14:50:21Z</time>
      </trkpt>
      <trkpt lat="44.03283" lon="5.99297">
        <ele>557.3</ele>
        <time>2023-02-25T14:50:36Z</time>
      </trkpt>
      <trkpt lat="44.0329" lon="5.99304">
        <ele>553.6</ele>
        <time>2023-02-25T14:51:01Z</time>
      </trkpt>
      <trkpt lat="44.03293" lon="5.99307">
        <ele>551.8</ele>
        <time>2023-02-25T14:51:41Z</time>
      </trkpt>
      <trkpt lat="44.03295" lon="5.99311">
        <ele>551.4</ele>
        <time>2023-02-25T14:52:01Z</time>
      </trkpt>
      <trkpt lat="44.03303" lon="5.99321">
        <ele>547.1</ele>
        <time>2023-02-25T14:52:20Z</time>
      </trkpt>
      <trkpt lat="44.0331" lon="5.99317">
        <ele>541.5</ele>
        <time>2023-02-25T14:52:51Z</time>
      </trkpt>
      <trkpt lat="44.0331" lon="5.99318">
        <ele>541.2</ele>
        <time>2023-02-25T14:53:26Z</time>
      </trkpt>
      <trkpt lat="44.03307" lon="5.99333">
        <ele>545.7</ele>
        <time>2023-02-25T14:53:42Z</time>
      </trkpt>
      <trkpt lat="44.03306" lon="5.99349">
        <ele>545.8</ele>
        <time>2023-02-25T14:53:57Z</time>
      </trkpt>
      <trkpt lat="44.03304" lon="5.99364">
        <ele>547.5</ele>
        <time>2023-02-25T14:54:20Z</time>
      </trkpt>
      <trkpt lat="44.033" lon="5.99378">
        <ele>552.6</ele>
        <time>2023-02-25T14:54:36Z</time>
      </trkpt>
      <trkpt lat="44.03305" lon="5.99392">
        <ele>549.9</ele>
        <time>2023-02-25T14:54:51Z</time>
      </trkpt>
      <trkpt lat="44.03308" lon="5.99404">
        <ele>547.8</ele>
        <time>2023-02-25T14:55:09Z</time>
      </trkpt>
      <trkpt lat="44.03305" lon="5.99417">
        <ele>549.8</ele>
        <time>2023-02-25T14:55:31Z</time>
      </trkpt>
      <trkpt lat="44.03302" lon="5.99418">
        <ele>552.4</ele>
        <time>2023-02-25T14:56:07Z</time>
      </trkpt>
      <trkpt lat="44.03304" lon="5.99415">
        <ele>550.2</ele>
        <time>2023-02-25T14:57:05Z</time>
      </trkpt>
      <trkpt lat="44.03303" lon="5.99427">
        <ele>552.5</ele>
        <time>2023-02-25T14:57:25Z</time>
      </trkpt>
      <trkpt lat="44.03304" lon="5.99434">
        <ele>552.7</ele>
        <time>2023-02-25T14:57:48Z</time>
      </trkpt>
      <trkpt lat="44.03311" lon="5.99449">
        <ele>550</ele>
        <time>2023-02-25T14:58:03Z</time>
      </trkpt>
      <trkpt lat="44.03319" lon="5.99461">
        <ele>547</ele>
        <time>2023-02-25T14:58:17Z</time>
      </trkpt>
      <trkpt lat="44.0333" lon="5.99472">
        <ele>542.3</ele>
        <time>2023-02-25T14:58:30Z</time>
      </trkpt>
      <trkpt lat="44.03339" lon="5.99474">
        <ele>536.5</ele>
        <time>2023-02-25T14:58:51Z</time>
      </trkpt>
      <trkpt lat="44.03345" lon="5.99467">
        <ele>530.8</ele>
        <time>2023-02-25T14:59:07Z</time>
      </trkpt>
      <trkpt lat="44.03349" lon="5.9947">
        <ele>529.3</ele>
        <time>2023-02-25T15:00:00Z</time>
      </trkpt>
      <trkpt lat="44.03347" lon="5.99469">
        <ele>530.5</ele>
        <time>2023-02-25T15:00:41Z</time>
      </trkpt>
      <trkpt lat="44.03348" lon="5.99477">
        <ele>530</ele>
        <time>2023-02-25T15:01:09Z</time>
      </trkpt>
      <trkpt lat="44.03353" lon="5.99488">
        <ele>525.9</ele>
        <time>2023-02-25T15:01:26Z</time>
      </trkpt>
      <trkpt lat="44.03361" lon="5.99484">
        <ele>520.7</ele>
        <time>2023-02-25T15:01:44Z</time>
      </trkpt>
      <trkpt lat="44.03363" lon="5.99494">
        <ele>517.5</ele>
        <time>2023-02-25T15:02:02Z</time>
      </trkpt>
      <trkpt lat="44.0337" lon="5.99484">
        <ele>513.9</ele>
        <time>2023-02-25T15:02:20Z</time>
      </trkpt>
      <trkpt lat="44.0337" lon="5.9947">
        <ele>514.8</ele>
        <time>2023-02-25T15:02:51Z</time>
      </trkpt>
      <trkpt lat="44.03368" lon="5.99461">
        <ele>515.8</ele>
        <time>2023-02-25T15:03:06Z</time>
      </trkpt>
      <trkpt lat="44.03374" lon="5.99463">
        <ele>513.1</ele>
        <time>2023-02-25T15:03:50Z</time>
      </trkpt>
      <trkpt lat="44.03372" lon="5.9947">
        <ele>513.3</ele>
        <time>2023-02-25T15:04:01Z</time>
      </trkpt>
      <trkpt lat="44.03376" lon="5.99482">
        <ele>509.2</ele>
        <time>2023-02-25T15:04:22Z</time>
      </trkpt>
      <trkpt lat="44.03382" lon="5.99489">
        <ele>504.6</ele>
        <time>2023-02-25T15:04:48Z</time>
      </trkpt>
      <trkpt lat="44.03385" lon="5.99492">
        <ele>501.8</ele>
        <time>2023-02-25T15:05:09Z</time>
      </trkpt>
      <trkpt lat="44.03379" lon="5.99483">
        <ele>506.7</ele>
        <time>2023-02-25T15:05:32Z</time>
      </trkpt>
      <trkpt lat="44.03384" lon="5.99497">
        <ele>502.4</ele>
        <time>2023-02-25T15:05:50Z</time>
      </trkpt>
      <trkpt lat="44.03388" lon="5.99503">
        <ele>499.6</ele>
        <time>2023-02-25T15:06:19Z</time>
      </trkpt>
      <trkpt lat="44.03397" lon="5.99498">
        <ele>493.3</ele>
        <time>2023-02-25T15:06:38Z</time>
      </trkpt>
      <trkpt lat="44.03403" lon="5.99494">
        <ele>489.4</ele>
        <time>2023-02-25T15:06:59Z</time>
      </trkpt>
      <trkpt lat="44.03404" lon="5.99495">
        <ele>488.9</ele>
        <time>2023-02-25T15:07:43Z</time>
      </trkpt>
      <trkpt lat="44.03408" lon="5.99496">
        <ele>485.9</ele>
        <time>2023-02-25T15:13:27Z</time>
      </trkpt>
      <trkpt lat="44.03412" lon="5.99501">
        <ele>483.1</ele>
        <time>2023-02-25T15:15:36Z</time>
      </trkpt>
      <trkpt lat="44.03409" lon="5.99512">
        <ele>484.5</ele>
        <time>2023-02-25T15:16:41Z</time>
      </trkpt>
      <trkpt lat="44.03414" lon="5.99499">
        <ele>481.7</ele>
        <time>2023-02-25T15:16:59Z</time>
      </trkpt>
      <trkpt lat="44.03417" lon="5.99486">
        <ele>479.7</ele>
        <time>2023-02-25T15:17:17Z</time>
      </trkpt>
      <trkpt lat="44.03427" lon="5.99491">
        <ele>472.5</ele>
        <time>2023-02-25T15:17:38Z</time>
      </trkpt>
      <trkpt lat="44.03433" lon="5.99507">
        <ele>468.9</ele>
        <time>2023-02-25T15:17:53Z</time>
      </trkpt>
      <trkpt lat="44.0344" lon="5.99507">
        <ele>464.6</ele>
        <time>2023-02-25T15:18:12Z</time>
      </trkpt>
      <trkpt lat="44.03448" lon="5.99515">
        <ele>460.2</ele>
        <time>2023-02-25T15:18:31Z</time>
      </trkpt>
      <trkpt lat="44.03451" lon="5.99511">
        <ele>457.9</ele>
        <time>2023-02-25T15:22:47Z</time>
      </trkpt>
      <trkpt lat="44.0345" lon="5.99481">
        <ele>457.2</ele>
        <time>2023-02-25T15:22:57Z</time>
      </trkpt>
      <trkpt lat="44.03452" lon="5.99464">
        <ele>464.9</ele>
        <time>2023-02-25T15:23:07Z</time>
      </trkpt>
      <trkpt lat="44.03459" lon="5.99454">
        <ele>465.1</ele>
        <time>2023-02-25T15:23:16Z</time>
      </trkpt>
      <trkpt lat="44.03457" lon="5.99443">
        <ele>474.2</ele>
        <time>2023-02-25T15:23:27Z</time>
      </trkpt>
      <trkpt lat="44.03455" lon="5.99445">
        <ele>479.7</ele>
        <time>2023-02-25T15:23:47Z</time>
      </trkpt>
      <trkpt lat="44.03459" lon="5.9943">
        <ele>460.4</ele>
        <time>2023-02-25T15:24:01Z</time>
      </trkpt>
      <trkpt lat="44.03464" lon="5.99415">
        <ele>447.4</ele>
        <time>2023-02-25T15:24:12Z</time>
      </trkpt>
      <trkpt lat="44.0346" lon="5.99388">
        <ele>457.6</ele>
        <time>2023-02-25T15:24:31Z</time>
      </trkpt>
      <trkpt lat="44.03447" lon="5.99366">
        <ele>453.6</ele>
        <time>2023-02-25T15:24:43Z</time>
      </trkpt>
      <trkpt lat="44.03441" lon="5.99352">
        <ele>450.1</ele>
        <time>2023-02-25T15:24:55Z</time>
      </trkpt>
      <trkpt lat="44.03433" lon="5.99336">
        <ele>453.2</ele>
        <time>2023-02-25T15:25:06Z</time>
      </trkpt>
      <trkpt lat="44.0342" lon="5.99315">
        <ele>455.7</ele>
        <time>2023-02-25T15:25:21Z</time>
      </trkpt>
      <trkpt lat="44.03417" lon="5.99297">
        <ele>453.5</ele>
        <time>2023-02-25T15:25:34Z</time>
      </trkpt>
      <trkpt lat="44.03413" lon="5.99276">
        <ele>452.9</ele>
        <time>2023-02-25T15:25:53Z</time>
      </trkpt>
      <trkpt lat="44.03414" lon="5.99257">
        <ele>448</ele>
        <time>2023-02-25T15:26:09Z</time>
      </trkpt>
      <trkpt lat="44.03411" lon="5.99236">
        <ele>446.1</ele>
        <time>2023-02-25T15:26:24Z</time>
      </trkpt>
      <trkpt lat="44.03411" lon="5.99212">
        <ele>443.7</ele>
        <time>2023-02-25T15:26:39Z</time>
      </trkpt>
      <trkpt lat="44.0341" lon="5.99192">
        <ele>444.2</ele>
        <time>2023-02-25T15:26:52Z</time>
      </trkpt>
      <trkpt lat="44.03409" lon="5.99173">
        <ele>445.6</ele>
        <time>2023-02-25T15:27:03Z</time>
      </trkpt>
      <trkpt lat="44.03404" lon="5.99159">
        <ele>447.2</ele>
        <time>2023-02-25T15:27:16Z</time>
      </trkpt>
      <trkpt lat="44.03401" lon="5.99147">
        <ele>446.5</ele>
        <time>2023-02-25T15:27:37Z</time>
      </trkpt>
      <trkpt lat="44.03396" lon="5.99137">
        <ele>447</ele>
        <time>2023-02-25T15:27:48Z</time>
      </trkpt>
      <trkpt lat="44.03386" lon="5.9913">
        <ele>454.3</ele>
        <time>2023-02-25T15:27:57Z</time>
      </trkpt>
      <trkpt lat="44.03388" lon="5.99132">
        <ele>451.1</ele>
        <time>2023-02-25T15:28:14Z</time>
      </trkpt>
      <trkpt lat="44.03386" lon="5.99137">
        <ele>454.7</ele>
        <time>2023-02-25T15:28:35Z</time>
      </trkpt>
      <trkpt lat="44.03383" lon="5.99141">
        <ele>461</ele>
        <time>2023-02-25T15:28:58Z</time>
      </trkpt>
      <trkpt lat="44.03379" lon="5.99144">
        <ele>466.8</ele>
        <time>2023-02-25T15:29:21Z</time>
      </trkpt>
      <trkpt lat="44.03384" lon="5.99141">
        <ele>459.4</ele>
        <time>2023-02-25T15:29:43Z</time>
      </trkpt>
      <trkpt lat="44.03389" lon="5.99145">
        <ele>453.1</ele>
        <time>2023-02-25T15:30:05Z</time>
      </trkpt>
      <trkpt lat="44.03378" lon="5.99128">
        <ele>469</ele>
        <time>2023-02-25T15:30:44Z</time>
      </trkpt>
      <trkpt lat="44.03379" lon="5.99126">
        <ele>467.4</ele>
        <time>2023-02-25T15:31:49Z</time>
      </trkpt>
      <trkpt lat="44.0338" lon="5.99126">
        <ele>464.9</ele>
        <time>2023-02-25T15:33:03Z</time>
      </trkpt>
      <trkpt lat="44.03387" lon="5.99118">
        <ele>448.9</ele>
        <time>2023-02-25T15:33:16.211Z</time>
      </trkpt>
      <trkpt lat="44.03385" lon="5.99115">
        <ele>454.3</ele>
        <time>2023-02-25T15:33:20.500Z</time>
      </trkpt>
      <trkpt lat="44.03382" lon="5.99114">
        <ele>461.1</ele>
        <time>2023-02-25T15:33:25Z</time>
      </trkpt>
      <trkpt lat="44.0338" lon="5.99105">
        <ele>461.4</ele>
        <time>2023-02-25T15:33:39Z</time>
      </trkpt>
      <trkpt lat="44.03376" lon="5.99097">
        <ele>463.1</ele>
        <time>2023-02-25T15:33:51Z</time>
      </trkpt>
      <trkpt lat="44.03368" lon="5.99078">
        <ele>454.9</ele>
        <time>2023-02-25T15:34:05Z</time>
      </trkpt>
      <trkpt lat="44.03361" lon="5.99064">
        <ele>453.3</ele>
        <time>2023-02-25T15:34:18Z</time>
      </trkpt>
      <trkpt lat="44.03353" lon="5.99054">
        <ele>457.9</ele>
        <time>2023-02-25T15:34:31Z</time>
      </trkpt>
      <trkpt lat="44.03349" lon="5.99044">
        <ele>457.7</ele>
        <time>2023-02-25T15:34:42.049Z</time>
      </trkpt>
      <trkpt lat="44.03347" lon="5.99041">
        <ele>457.7</ele>
        <time>2023-02-25T15:34:46Z</time>
      </trkpt>
      <trkpt lat="44.03344" lon="5.99031">
        <ele>452.4</ele>
        <time>2023-02-25T15:35:04Z</time>
      </trkpt>
      <trkpt lat="44.03339" lon="5.99016">
        <ele>450.3</ele>
        <time>2023-02-25T15:35:20Z</time>
      </trkpt>
      <trkpt lat="44.03334" lon="5.99">
        <ele>450.4</ele>
        <time>2023-02-25T15:35:37Z</time>
      </trkpt>
      <trkpt lat="44.03328" lon="5.98987">
        <ele>451.3</ele>
        <time>2023-02-25T15:35:56Z</time>
      </trkpt>
      <trkpt lat="44.03324" lon="5.9898">
        <ele>452</ele>
        <time>2023-02-25T15:36:37Z</time>
      </trkpt>
      <trkpt lat="44.03317" lon="5.98972">
        <ele>453.4</ele>
        <time>2023-02-25T15:36:49Z</time>
      </trkpt>
      <trkpt lat="44.03312" lon="5.98959">
        <ele>452.5</ele>
        <time>2023-02-25T15:37:04Z</time>
      </trkpt>
      <trkpt lat="44.03306" lon="5.9895">
        <ele>452.4</ele>
        <time>2023-02-25T15:37:16Z</time>
      </trkpt>
      <trkpt lat="44.03302" lon="5.98933">
        <ele>456.8</ele>
        <time>2023-02-25T15:37:36Z</time>
      </trkpt>
      <trkpt lat="44.033" lon="5.98915">
        <ele>454.7</ele>
        <time>2023-02-25T15:37:50Z</time>
      </trkpt>
      <trkpt lat="44.03298" lon="5.98894">
        <ele>450.5</ele>
        <time>2023-02-25T15:38:05Z</time>
      </trkpt>
      <trkpt lat="44.03293" lon="5.98872">
        <ele>450.7</ele>
        <time>2023-02-25T15:38:22Z</time>
      </trkpt>
      <trkpt lat="44.03284" lon="5.98854">
        <ele>454.4</ele>
        <time>2023-02-25T15:38:41Z</time>
      </trkpt>
      <trkpt lat="44.03276" lon="5.98841">
        <ele>459.9</ele>
        <time>2023-02-25T15:38:55Z</time>
      </trkpt>
      <trkpt lat="44.03268" lon="5.98831">
        <ele>466.6</ele>
        <time>2023-02-25T15:39:11Z</time>
      </trkpt>
      <trkpt lat="44.03257" lon="5.98817">
        <ele>476.4</ele>
        <time>2023-02-25T15:39:26Z</time>
      </trkpt>
      <trkpt lat="44.0326" lon="5.98814">
        <ele>472</ele>
        <time>2023-02-25T15:39:33.570Z</time>
      </trkpt>
      <trkpt lat="44.03258" lon="5.98809">
        <ele>473.8</ele>
        <time>2023-02-25T15:39:42Z</time>
      </trkpt>
      <trkpt lat="44.03255" lon="5.98804">
        <ele>475.6</ele>
        <time>2023-02-25T15:40:03Z</time>
      </trkpt>
      <trkpt lat="44.03254" lon="5.98809">
        <ele>479.6</ele>
        <time>2023-02-25T15:40:43Z</time>
      </trkpt>
      <trkpt lat="44.03254" lon="5.98809">
        <ele>479.6</ele>
        <time>2023-02-25T15:40:45Z</time>
      </trkpt>
      <trkpt lat="44.0325" lon="5.98816">
        <ele>487.6</ele>
        <time>2023-02-25T15:43:43Z</time>
      </trkpt>
      <trkpt lat="44.03252" lon="5.98825">
        <ele>486.8</ele>
        <time>2023-02-25T15:44:14Z</time>
      </trkpt>
      <trkpt lat="44.03252" lon="5.98819">
        <ele>484.4</ele>
        <time>2023-02-25T15:44:37Z</time>
      </trkpt>
      <trkpt lat="44.03254" lon="5.98805">
        <ele>477.3</ele>
        <time>2023-02-25T15:45:06.928Z</time>
      </trkpt>
      <trkpt lat="44.03261" lon="5.98801">
        <ele>465.5</ele>
        <time>2023-02-25T15:45:29Z</time>
      </trkpt>
      <trkpt lat="44.03258" lon="5.98795">
        <ele>465.4</ele>
        <time>2023-02-25T15:46:05Z</time>
      </trkpt>
      <trkpt lat="44.03253" lon="5.98781">
        <ele>462.9</ele>
        <time>2023-02-25T15:47:50Z</time>
      </trkpt>
      <trkpt lat="44.03249" lon="5.98768">
        <ele>459.2</ele>
        <time>2023-02-25T15:48:08Z</time>
      </trkpt>
      <trkpt lat="44.03244" lon="5.98758">
        <ele>455.8</ele>
        <time>2023-02-25T15:48:18.886Z</time>
      </trkpt>
      <trkpt lat="44.03242" lon="5.98753">
        <ele>454.2</ele>
        <time>2023-02-25T15:48:24Z</time>
      </trkpt>
      <trkpt lat="44.03237" lon="5.98743">
        <ele>453.7</ele>
        <time>2023-02-25T15:48:40Z</time>
      </trkpt>
      <trkpt lat="44.03232" lon="5.98731">
        <ele>453.4</ele>
        <time>2023-02-25T15:48:54Z</time>
      </trkpt>
      <trkpt lat="44.03226" lon="5.98724">
        <ele>454.7</ele>
        <time>2023-02-25T15:49:07Z</time>
      </trkpt>
      <trkpt lat="44.03225" lon="5.98717">
        <ele>454.2</ele>
        <time>2023-02-25T15:49:15.003Z</time>
      </trkpt>
      <trkpt lat="44.0322" lon="5.98713">
        <ele>456.1</ele>
        <time>2023-02-25T15:49:24Z</time>
      </trkpt>
      <trkpt lat="44.03216" lon="5.98709">
        <ele>457.3</ele>
        <time>2023-02-25T15:50:19Z</time>
      </trkpt>
      <trkpt lat="44.03215" lon="5.98706">
        <ele>457.8</ele>
        <time>2023-02-25T15:51:18Z</time>
      </trkpt>
      <trkpt lat="44.03214" lon="5.98696">
        <ele>456.7</ele>
        <time>2023-02-25T15:53:19Z</time>
      </trkpt>
      <trkpt lat="44.0321" lon="5.98688">
        <ele>456.3</ele>
        <time>2023-02-25T15:53:27Z</time>
      </trkpt>
      <trkpt lat="44.03207" lon="5.98678">
        <ele>454.6</ele>
        <time>2023-02-25T15:53:37Z</time>
      </trkpt>
      <trkpt lat="44.03202" lon="5.9866">
        <ele>452.1</ele>
        <time>2023-02-25T15:53:49Z</time>
      </trkpt>
      <trkpt lat="44.03198" lon="5.98642">
        <ele>450.8</ele>
        <time>2023-02-25T15:54:01Z</time>
      </trkpt>
      <trkpt lat="44.03195" lon="5.98627">
        <ele>450</ele>
        <time>2023-02-25T15:54:12Z</time>
      </trkpt>
      <trkpt lat="44.03195" lon="5.98612">
        <ele>448.1</ele>
        <time>2023-02-25T15:54:21Z</time>
      </trkpt>
      <trkpt lat="44.03191" lon="5.98601">
        <ele>449.3</ele>
        <time>2023-02-25T15:54:31Z</time>
      </trkpt>
      <trkpt lat="44.03183" lon="5.98584">
        <ele>451.7</ele>
        <time>2023-02-25T15:54:45Z</time>
      </trkpt>
      <trkpt lat="44.0318" lon="5.98571">
        <ele>449.8</ele>
        <time>2023-02-25T15:54:59Z</time>
      </trkpt>
      <trkpt lat="44.03174" lon="5.98553">
        <ele>447</ele>
        <time>2023-02-25T15:55:11Z</time>
      </trkpt>
      <trkpt lat="44.03169" lon="5.98537">
        <ele>445.6</ele>
        <time>2023-02-25T15:55:21.907Z</time>
      </trkpt>
      <trkpt lat="44.03165" lon="5.98529">
        <ele>445.4</ele>
        <time>2023-02-25T15:55:28Z</time>
      </trkpt>
      <trkpt lat="44.03166" lon="5.98523">
        <ele>444.2</ele>
        <time>2023-02-25T15:55:47Z</time>
      </trkpt>
      <trkpt lat="44.03165" lon="5.98528">
        <ele>445.4</ele>
        <time>2023-02-25T15:56:14Z</time>
      </trkpt>
      <trkpt lat="44.03163" lon="5.98526">
        <ele>446.4</ele>
        <time>2023-02-25T15:56:53Z</time>
      </trkpt>
      <trkpt lat="44.03155" lon="5.98525">
        <ele>453.2</ele>
        <time>2023-02-25T15:57:08Z</time>
      </trkpt>
      <trkpt lat="44.03164" lon="5.98519">
        <ele>445.3</ele>
        <time>2023-02-25T15:57:25Z</time>
      </trkpt>
      <trkpt lat="44.03164" lon="5.98515">
        <ele>445.4</ele>
        <time>2023-02-25T15:57:42Z</time>
      </trkpt>
      <trkpt lat="44.03162" lon="5.98505">
        <ele>446</ele>
        <time>2023-02-25T15:57:53Z</time>
      </trkpt>
      <trkpt lat="44.0316" lon="5.98493">
        <ele>445</ele>
        <time>2023-02-25T15:58:06Z</time>
      </trkpt>
      <trkpt lat="44.03158" lon="5.98476">
        <ele>443.1</ele>
        <time>2023-02-25T15:58:18Z</time>
      </trkpt>
      <trkpt lat="44.03155" lon="5.98458">
        <ele>442.3</ele>
        <time>2023-02-25T15:58:28Z</time>
      </trkpt>
      <trkpt lat="44.03153" lon="5.98446">
        <ele>442.5</ele>
        <time>2023-02-25T15:58:37Z</time>
      </trkpt>
      <trkpt lat="44.03151" lon="5.98426">
        <ele>441.8</ele>
        <time>2023-02-25T15:58:48Z</time>
      </trkpt>
      <trkpt lat="44.03148" lon="5.98409">
        <ele>440.7</ele>
        <time>2023-02-25T15:59:00Z</time>
      </trkpt>
      <trkpt lat="44.03144" lon="5.98399">
        <ele>439.9</ele>
        <time>2023-02-25T15:59:14Z</time>
      </trkpt>
      <trkpt lat="44.03142" lon="5.98391">
        <ele>439</ele>
        <time>2023-02-25T15:59:18.927Z</time>
      </trkpt>
      <trkpt lat="44.03136" lon="5.98372">
        <ele>438.5</ele>
        <time>2023-02-25T15:59:31Z</time>
      </trkpt>
      <trkpt lat="44.03132" lon="5.98355">
        <ele>436.9</ele>
        <time>2023-02-25T15:59:46Z</time>
      </trkpt>
      <trkpt lat="44.0313" lon="5.98347">
        <ele>435.9</ele>
        <time>2023-02-25T15:59:59Z</time>
      </trkpt>
      <trkpt lat="44.03123" lon="5.98328">
        <ele>434.3</ele>
        <time>2023-02-25T16:00:14Z</time>
      </trkpt>
      <trkpt lat="44.0312" lon="5.98318">
        <ele>432.5</ele>
        <time>2023-02-25T16:00:28Z</time>
      </trkpt>
      <trkpt lat="44.03117" lon="5.98305">
        <ele>429.9</ele>
        <time>2023-02-25T16:00:40Z</time>
      </trkpt>
      <trkpt lat="44.03113" lon="5.98294">
        <ele>427.9</ele>
        <time>2023-02-25T16:00:52Z</time>
      </trkpt>
      <trkpt lat="44.03111" lon="5.98284">
        <ele>425.8</ele>
        <time>2023-02-25T16:01:03Z</time>
      </trkpt>
      <trkpt lat="44.03108" lon="5.98271">
        <ele>424.7</ele>
        <time>2023-02-25T16:01:15Z</time>
      </trkpt>
      <trkpt lat="44.03105" lon="5.9826">
        <ele>424.1</ele>
        <time>2023-02-25T16:01:26Z</time>
      </trkpt>
      <trkpt lat="44.03099" lon="5.98241">
        <ele>423.5</ele>
        <time>2023-02-25T16:01:39Z</time>
      </trkpt>
      <trkpt lat="44.03097" lon="5.9823">
        <ele>422.9</ele>
        <time>2023-02-25T16:01:59Z</time>
      </trkpt>
      <trkpt lat="44.0309" lon="5.9822">
        <ele>424.2</ele>
        <time>2023-02-25T16:02:15Z</time>
      </trkpt>
      <trkpt lat="44.03081" lon="5.98204">
        <ele>423.8</ele>
        <time>2023-02-25T16:02:27Z</time>
      </trkpt>
      <trkpt lat="44.03077" lon="5.98196">
        <ele>423.8</ele>
        <time>2023-02-25T16:02:39Z</time>
      </trkpt>
      <trkpt lat="44.03072" lon="5.98172">
        <ele>422.7</ele>
        <time>2023-02-25T16:02:47.136Z</time>
      </trkpt>
      <trkpt lat="44.0307" lon="5.98167">
        <ele>422.9</ele>
        <time>2023-02-25T16:02:49Z</time>
      </trkpt>
      <trkpt lat="44.03067" lon="5.98159">
        <ele>423.2</ele>
        <time>2023-02-25T16:03:15Z</time>
      </trkpt>
      <trkpt lat="44.03065" lon="5.98151">
        <ele>422.9</ele>
        <time>2023-02-25T16:04:11Z</time>
      </trkpt>
      <trkpt lat="44.03063" lon="5.98142">
        <ele>422.5</ele>
        <time>2023-02-25T16:04:28Z</time>
      </trkpt>
      <trkpt lat="44.03061" lon="5.98127">
        <ele>419.4</ele>
        <time>2023-02-25T16:04:40Z</time>
      </trkpt>
      <trkpt lat="44.03059" lon="5.98109">
        <ele>415.8</ele>
        <time>2023-02-25T16:04:52Z</time>
      </trkpt>
      <trkpt lat="44.03057" lon="5.98101">
        <ele>416</ele>
        <time>2023-02-25T16:05:11Z</time>
      </trkpt>
      <trkpt lat="44.03059" lon="5.98097">
        <ele>415.1</ele>
        <time>2023-02-25T16:05:48Z</time>
      </trkpt>
      <trkpt lat="44.03065" lon="5.98107">
        <ele>413.5</ele>
        <time>2023-02-25T16:06:02Z</time>
      </trkpt>
      <trkpt lat="44.03069" lon="5.98122">
        <ele>415.4</ele>
        <time>2023-02-25T16:06:13Z</time>
      </trkpt>
      <trkpt lat="44.03075" lon="5.98138">
        <ele>417.9</ele>
        <time>2023-02-25T16:06:21Z</time>
      </trkpt>
      <trkpt lat="44.03078" lon="5.98153">
        <ele>417.9</ele>
        <time>2023-02-25T16:06:29Z</time>
      </trkpt>
      <trkpt lat="44.03084" lon="5.98167">
        <ele>416.9</ele>
        <time>2023-02-25T16:06:33.495Z</time>
      </trkpt>
      <trkpt lat="44.03087" lon="5.98179">
        <ele>417.2</ele>
        <time>2023-02-25T16:06:37Z</time>
      </trkpt>
      <trkpt lat="44.0309" lon="5.98184">
        <ele>416.9</ele>
        <time>2023-02-25T16:06:47Z</time>
      </trkpt>
      <trkpt lat="44.03092" lon="5.98191">
        <ele>417.1</ele>
        <time>2023-02-25T16:06:57Z</time>
      </trkpt>
      <trkpt lat="44.03099" lon="5.98199">
        <ele>416.6</ele>
        <time>2023-02-25T16:07:08Z</time>
      </trkpt>
      <trkpt lat="44.03104" lon="5.98207">
        <ele>416.4</ele>
        <time>2023-02-25T16:07:19Z</time>
      </trkpt>
      <trkpt lat="44.0311" lon="5.98216">
        <ele>416.3</ele>
        <time>2023-02-25T16:07:29Z</time>
      </trkpt>
      <trkpt lat="44.03116" lon="5.98225">
        <ele>415.8</ele>
        <time>2023-02-25T16:07:39Z</time>
      </trkpt>
      <trkpt lat="44.0312" lon="5.98237">
        <ele>415.8</ele>
        <time>2023-02-25T16:07:49Z</time>
      </trkpt>
      <trkpt lat="44.03123" lon="5.98251">
        <ele>416.4</ele>
        <time>2023-02-25T16:07:59Z</time>
      </trkpt>
      <trkpt lat="44.03129" lon="5.98266">
        <ele>416.8</ele>
        <time>2023-02-25T16:08:09Z</time>
      </trkpt>
      <trkpt lat="44.03137" lon="5.9828">
        <ele>417.1</ele>
        <time>2023-02-25T16:08:20Z</time>
      </trkpt>
      <trkpt lat="44.03145" lon="5.9829">
        <ele>417</ele>
        <time>2023-02-25T16:08:32Z</time>
      </trkpt>
      <trkpt lat="44.03154" lon="5.98301">
        <ele>416.6</ele>
        <time>2023-02-25T16:08:42Z</time>
      </trkpt>
      <trkpt lat="44.03162" lon="5.98313">
        <ele>416.5</ele>
        <time>2023-02-25T16:08:51Z</time>
      </trkpt>
      <trkpt lat="44.03168" lon="5.98324">
        <ele>415.6</ele>
        <time>2023-02-25T16:09:01Z</time>
      </trkpt>
      <trkpt lat="44.03176" lon="5.98335">
        <ele>414.1</ele>
        <time>2023-02-25T16:09:11Z</time>
      </trkpt>
      <trkpt lat="44.03183" lon="5.98345">
        <ele>413.3</ele>
        <time>2023-02-25T16:09:21Z</time>
      </trkpt>
      <trkpt lat="44.03189" lon="5.98357">
        <ele>413.3</ele>
        <time>2023-02-25T16:09:31Z</time>
      </trkpt>
      <trkpt lat="44.03197" lon="5.98367">
        <ele>412</ele>
        <time>2023-02-25T16:09:42Z</time>
      </trkpt>
      <trkpt lat="44.03204" lon="5.98378">
        <ele>411.3</ele>
        <time>2023-02-25T16:09:52Z</time>
      </trkpt>
      <trkpt lat="44.0321" lon="5.98391">
        <ele>410.6</ele>
        <time>2023-02-25T16:10:02Z</time>
      </trkpt>
      <trkpt lat="44.03216" lon="5.98404">
        <ele>410.1</ele>
        <time>2023-02-25T16:10:11Z</time>
      </trkpt>
      <trkpt lat="44.03222" lon="5.98417">
        <ele>409.3</ele>
        <time>2023-02-25T16:10:20Z</time>
      </trkpt>
      <trkpt lat="44.03227" lon="5.98429">
        <ele>409.6</ele>
        <time>2023-02-25T16:10:29Z</time>
      </trkpt>
      <trkpt lat="44.03229" lon="5.98442">
        <ele>410.6</ele>
        <time>2023-02-25T16:10:38Z</time>
      </trkpt>
      <trkpt lat="44.03232" lon="5.98456">
        <ele>411.2</ele>
        <time>2023-02-25T16:10:47Z</time>
      </trkpt>
      <trkpt lat="44.03238" lon="5.98468">
        <ele>411.3</ele>
        <time>2023-02-25T16:10:56Z</time>
      </trkpt>
      <trkpt lat="44.0324" lon="5.98478">
        <ele>411.7</ele>
        <time>2023-02-25T16:11:07Z</time>
      </trkpt>
      <trkpt lat="44.03247" lon="5.98495">
        <ele>410.7</ele>
        <time>2023-02-25T16:11:17Z</time>
      </trkpt>
      <trkpt lat="44.03252" lon="5.98505">
        <ele>410.2</ele>
        <time>2023-02-25T16:11:25Z</time>
      </trkpt>
      <trkpt lat="44.03256" lon="5.98516">
        <ele>410.6</ele>
        <time>2023-02-25T16:11:34Z</time>
      </trkpt>
      <trkpt lat="44.03261" lon="5.98523">
        <ele>410.6</ele>
        <time>2023-02-25T16:11:39Z</time>
      </trkpt>
      <trkpt lat="44.03262" lon="5.9853">
        <ele>410.9</ele>
        <time>2023-02-25T16:11:43Z</time>
      </trkpt>
      <trkpt lat="44.03267" lon="5.98536">
        <ele>410.7</ele>
        <time>2023-02-25T16:11:50Z</time>
      </trkpt>
    </trkseg>
  </trk>
</gpx>